Data for 07/06/2007

Time Sea-Level Adjusted Pressure Absolute Pressure Temperature Relative Humidity Dew Point Precipitation   
(mb) (inHg) (mb) (inHg) (C) (F) (%) (C) (F) (mm) (in)
00:01 1023 30.21 852 25.16 24.6 76.2 36 8.8 47.9 0
00:02 1023 30.21 852 25.16 24.5 76.2 36 8.8 47.8 0
00:03 1023 30.21 852 25.16 24.6 76.2 36 8.8 47.9 0
00:04 1023 30.21 852 25.16 24.6 76.3 36 9 48.1 0
00:05 1023 30.21 852 25.16 24.6 76.2 37 9 48.2 0
00:06 1023 30.21 852 25.16 24.5 76.2 37 9 48.2 0
00:07 1023 30.21 852 25.16 24.5 76.1 36 8.7 47.7 0
00:08 1023 30.21 852 25.16 24.6 76.3 36 8.9 47.9 0
00:09 1023 30.21 852 25.16 24.7 76.5 36 8.9 47.9 0
00:10 1023 30.21 852 25.16 24.7 76.4 36 8.9 48.1 0
00:11 1023 30.21 852 25.16 24.7 76.4 36 8.9 48 0
00:12 1023 30.21 852 25.16 24.6 76.3 36 8.9 48.1 0
00:13 1023 30.21 852 25.16 24.6 76.2 37 9 48.2 0
00:14 1023 30.21 852 25.16 24.6 76.3 36 8.9 48.1 0
00:15 1023 30.21 852 25.16 24.7 76.4 36 8.8 47.8 0
00:16 1023 30.21 852 25.16 24.7 76.5 36 8.9 48.1 0
00:17 1023 30.21 852 25.16 24.7 76.5 36 9 48.2 0
00:18 1023 30.21 852 25.16 24.7 76.5 37 9.1 48.4 0
00:19 1023 30.21 852 25.16 24.6 76.2 36 8.9 48 0
00:20 1023 30.21 852 25.16 24.5 76.1 37 9 48.2 0
00:21 1023 30.21 852 25.16 24.5 76.1 36 8.8 47.9 0
00:22 1023 30.21 852 25.16 24.6 76.2 37 9 48.1 0
00:23 1023 30.21 852 25.16 24.5 76.2 36 8.8 47.8 0
00:24 1023 30.21 852 25.16 24.5 76.2 37 9 48.1 0
00:25 1023 30.21 852 25.16 24.5 76.1 37 9 48.1 0
00:26 1023 30.21 852 25.16 24.5 76 36 8.8 47.9 0
00:27 1023 30.21 852 25.16 24.5 76.1 37 9 48.2 0
00:28 1023 30.21 852 25.16 24.5 76 37 8.9 48 0
00:29 1023 30.21 852 25.16 24.5 76 36 8.8 47.8 0
00:30 1023 30.21 852 25.16 24.5 76.2 36 8.8 47.9 0
00:31 1023 30.21 852 25.16 24.5 76.2 37 9 48.2 0
00:32 1023 30.21 852 25.16 24.5 76 37 9 48.2 0
00:33 1023 30.21 852 25.16 24.4 75.8 37 8.9 48 0
00:34 1023 30.21 852 25.16 24.4 75.9 37 8.9 48 0
00:35 1023 30.21 852 25.16 24.4 75.9 37 9 48.3 0
00:36 1023 30.21 852 25.16 24.4 75.9 36 8.8 47.8 0
00:37 1023 30.21 852 25.16 24.4 75.9 37 8.9 48.1 0
00:38 1023 30.21 852 25.16 24.4 75.8 37 8.8 47.9 0
00:39 1023 30.21 852 25.16 24.3 75.7 37 8.9 47.9 0
00:40 1023 30.21 852 25.16 24.3 75.7 37 8.9 48 0
00:41 1023 30.21 852 25.16 24.4 75.8 37 8.9 48 0
00:42 1023 30.21 852 25.16 24.4 75.8 36 8.7 47.7 0
00:43 1023 30.21 852 25.16 24.4 75.9 37 8.9 48.1 0
00:44 1023 30.21 852 25.16 24.4 75.8 37 8.9 48 0
00:45 1023 30.21 852 25.16 24.4 75.9 37 9 48.1 0
00:46 1023 30.21 852 25.16 24.3 75.8 37 9 48.1 0
00:47 1023 30.21 852 25.16 24.3 75.7 37 9 48.2 0
00:48 1023 30.21 852 25.16 24.2 75.6 37 8.9 48 0
00:49 1023 30.21 852 25.16 24.2 75.6 37 8.8 47.9 0
00:50 1023 30.21 852 25.16 24.2 75.5 38 9.1 48.3 0
00:51 1023 30.21 852 25.16 24.1 75.4 38 9.1 48.3 0
00:52 1023 30.21 852 25.16 24 75.3 38 8.9 48.1 0
00:53 1023 30.21 852 25.16 24.1 75.3 38 9.2 48.5 0
00:54 1023 30.21 852 25.16 24 75.2 38 9 48.2 0
00:55 1023 30.21 852 25.16 24 75.2 37 8.8 47.9 0
00:56 1023 30.21 852 25.16 24.1 75.4 37 8.9 48 0
00:57 1023 30.21 852 25.16 24.1 75.5 37 8.9 48 0
00:58 1023 30.21 852 25.16 24.1 75.4 38 9 48.2 0
00:59 1023 30.21 852 25.16 24.1 75.4 38 9 48.1 0
01:00 1023 30.21 852 25.16 24.1 75.4 38 9 48.2 0
01:01 1023 30.21 852 25.16 24.1 75.4 38 9 48.1 0
01:02 1023 30.21 852 25.16 24.1 75.4 38 9 48.1 0
01:03 1023 30.21 852 25.16 24.1 75.3 38 9.1 48.4 0
01:04 1023 30.21 852 25.16 24 75.2 38 9.1 48.4 0
01:05 1023 30.21 852 25.16 24 75.1 38 9 48.2 0
01:06 1023 30.21 852 25.16 24 75.1 38 8.9 48.1 0
01:07 1023 30.21 852 25.16 24 75.2 38 8.9 48 0
01:08 1023 30.21 852 25.16 24 75.2 38 9 48.1 0
01:09 1023 30.21 852 25.16 24 75.3 38 9 48.1 0
01:10 1023 30.21 852 25.16 24 75.3 37 8.8 47.8 0
01:11 1023 30.21 852 25.16 24.1 75.4 38 8.9 48.1 0
01:12 1023 30.21 852 25.16 24.1 75.4 37 8.9 48 0
01:13 1023 30.21 852 25.16 24.2 75.5 38 9 48.3 0
01:14 1023 30.21 852 25.16 24 75.3 38 9.1 48.3 0
01:15 1023 30.21 852 25.16 24 75.2 38 9 48.2 0
01:16 1023 30.21 852 25.16 24 75.2 38 9 48.2 0
01:17 1023 30.21 852 25.16 24 75.1 38 8.9 48.1 0
01:18 1023 30.21 852 25.16 23.9 75.1 38 8.9 48 0
01:19 1023 30.21 852 25.16 24 75.2 37 8.8 47.8 0
01:20 1023 30.21 852 25.16 24 75.2 38 9.1 48.3 0
01:21 1023 30.21 852 25.16 24 75.2 38 8.9 48.1 0
01:22 1023 30.21 852 25.16 24 75.2 38 9 48.1 0
01:23 1023 30.21 852 25.16 24 75.2 38 9 48.1 0
01:24 1023 30.21 852 25.16 24 75.2 38 9 48.2 0
01:25 1023 30.21 852 25.16 23.9 75.1 38 8.9 48 0
01:26 1023 30.21 852 25.16 23.9 75 38 9 48.2 0
01:27 1023 30.21 852 25.16 23.8 74.9 39 9.1 48.4 0
01:28 1023 30.21 852 25.16 23.8 74.8 38 9 48.1 0
01:29 1023 30.21 852 25.16 23.8 74.9 38 8.9 48 0
01:30 1023 30.21 852 25.16 23.9 75 37 8.7 47.6 0
01:31 1023 30.21 852 25.16 24 75.2 38 8.9 48.1 0
01:32 1023 30.21 852 25.16 24 75.2 38 9 48.3 0
01:33 1023 30.21 852 25.16 23.9 75.1 38 9.1 48.5 0
01:34 1023 30.21 852 25.16 23.9 75 38 9 48.1 0
01:35 1023 30.21 852 25.16 23.9 75.1 38 9.1 48.4 0
01:36 1023 30.21 852 25.16 23.9 75 38 8.9 48 0
01:37 1023 30.21 852 25.16 23.9 75 38 8.9 47.9 0
01:38 1023 30.21 852 25.16 23.9 75 38 8.9 48 0
01:39 1023 30.21 852 25.16 24 75.2 38 9.1 48.3 0
01:40 1023 30.21 852 25.16 23.9 75 38 8.8 47.9 0
01:41 1023 30.21 852 25.16 23.9 75.1 38 8.9 48 0
01:42 1023 30.21 852 25.16 23.9 75 38 9 48.2 0
01:43 1023 30.21 852 25.16 23.8 74.9 38 8.9 48 0
01:44 1023 30.21 852 25.16 23.9 75 38 8.9 48.1 0
01:45 1023 30.21 852 25.16 23.8 74.9 38 8.9 48 0
01:46 1023 30.21 852 25.16 23.9 75 38 9 48.2 0
01:47 1023 30.21 852 25.16 23.9 74.9 38 8.8 47.8 0
01:48 1023 30.21 852 25.16 23.9 75.1 37 8.7 47.7 0
01:49 1023 30.21 852 25.16 24 75.1 37 8.8 47.8 0
01:50 1023 30.21 852 25.16 24 75.3 38 8.9 48.1 0
01:51 1023 30.21 852 25.16 24 75.2 37 8.8 47.8 0
01:52 1023 30.21 852 25.16 24 75.3 38 8.9 48 0
01:53 1023 30.21 852 25.16 24 75.2 38 8.8 47.9 0
01:54 1023 30.21 852 25.16 24.1 75.3 38 9 48.2 0
01:55 1023 30.21 852 25.16 24 75.2 37 8.8 47.9 0
01:56 1023 30.21 852 25.16 24 75.2 38 8.9 48 0
01:57 1023 30.21 852 25.16 23.9 75.1 38 8.9 48 0
01:58 1023 30.21 852 25.16 23.9 75 37 8.7 47.7 0
01:59 1023 30.21 852 25.16 24 75.1 38 8.9 48 0
02:00 1023 30.21 852 25.16 24 75.2 38 9 48.2 0
02:01 1023 30.21 852 25.16 23.9 75 38 9.1 48.4 0
02:02 1023 30.21 852 25.16 23.8 74.8 39 9.1 48.3 0
02:03 1023 30.21 852 25.16 23.7 74.7 38 8.8 47.8 0
02:04 1023 30.21 852 25.16 23.8 74.8 38 8.9 48 0
02:05 1023 30.21 852 25.16 23.7 74.7 38 8.9 48 0
02:06 1023 30.21 852 25.16 23.7 74.6 39 9 48.3 0
02:07 1023 30.21 852 25.16 23.7 74.6 39 9 48.2 0
02:08 1023 30.21 852 25.16 23.7 74.6 39 9 48.2 0
02:09 1023 30.21 852 25.16 23.7 74.6 39 8.9 48.1 0
02:10 1023 30.21 852 25.16 23.6 74.6 38 8.7 47.7 0
02:11 1023 30.21 852 25.16 23.7 74.7 38 8.7 47.7 0
02:12 1023 30.21 852 25.16 23.7 74.7 38 8.8 47.8 0
02:13 1023 30.21 852 25.16 23.7 74.7 38 8.9 48 0
02:14 1023 30.21 852 25.16 23.7 74.6 38 8.9 47.9 0
02:15 1023 30.21 852 25.16 23.7 74.7 38 9 48.1 0
02:16 1023 30.21 852 25.16 23.7 74.6 39 9.1 48.3 0
02:17 1023 30.21 852 25.16 23.6 74.4 38 8.8 47.8 0
02:18 1023 30.21 852 25.16 23.6 74.5 38 8.8 47.8 0
02:19 1023 30.21 852 25.16 23.7 74.6 38 8.8 47.9 0
02:20 1023 30.21 852 25.16 23.7 74.7 38 8.9 48 0
02:21 1023 30.21 852 25.16 23.6 74.6 39 8.9 48.1 0
02:22 1023 30.21 852 25.16 23.6 74.5 39 9 48.2 0
02:23 1023 30.21 852 25.16 23.6 74.4 39 9 48.3 0
02:24 1023 30.21 852 25.16 23.6 74.4 39 9 48.2 0
02:25 1023 30.21 852 25.16 23.5 74.3 39 8.9 48.1 0
02:26 1023 30.21 852 25.16 23.5 74.3 39 9 48.1 0
02:27 1023 30.21 852 25.16 23.5 74.3 39 8.8 47.8 0
02:28 1023 30.21 852 25.16 23.6 74.5 38 8.7 47.6 0
02:29 1023 30.21 852 25.16 23.7 74.6 38 8.8 47.8 0
02:30 1023 30.21 852 25.16 23.8 74.8 38 8.7 47.6 0
02:31 1023 30.21 852 25.16 23.8 74.8 38 8.9 48.1 0
02:32 1023 30.21 852 25.16 23.7 74.7 38 8.7 47.7 0
02:33 1023 30.21 852 25.16 23.7 74.7 38 8.8 47.9 0
02:34 1023 30.21 852 25.16 23.7 74.6 38 8.8 47.9 0
02:35 1023 30.21 852 25.16 23.7 74.7 38 8.9 48 0
02:36 1023 30.21 852 25.16 23.8 74.8 38 8.9 48 0
02:37 1023 30.21 852 25.16 23.8 74.8 38 8.7 47.7 0
02:38 1023 30.21 852 25.16 23.7 74.7 38 8.7 47.7 0
02:39 1023 30.21 852 25.16 23.7 74.7 38 8.8 47.9 0
02:40 1023 30.21 852 25.16 23.7 74.6 39 9.1 48.4 0
02:41 1023 30.21 852 25.16 23.5 74.3 39 9 48.2 0
02:42 1023 30.21 852 25.16 23.4 74.1 40 9.1 48.4 0
02:43 1023 30.21 852 25.16 23.4 74.1 39 8.9 48 0
02:44 1023 30.21 852 25.16 23.3 74 40 9.1 48.4 0
02:45 1023 30.21 852 25.16 23.3 73.9 40 9 48.2 0
02:46 1023 30.21 852 25.16 23.3 73.9 39 8.9 48 0
02:47 1023 30.21 852 25.16 23.2 73.8 40 9 48.2 0
02:48 1023 30.21 852 25.16 23.2 73.8 40 9 48.1 0
02:49 1023 30.21 852 25.16 23.2 73.8 40 8.9 48.1 0
02:50 1023 30.21 852 25.16 23.2 73.8 40 9 48.3 0
02:51 1023 30.21 852 25.16 23.2 73.8 40 9 48.2 0
02:52 1023 30.21 852 25.16 23.2 73.7 40 9.1 48.4 0
02:53 1023 30.21 852 25.16 23.2 73.7 41 9.3 48.7 0
02:54 1023 30.21 852 25.16 23.1 73.5 41 9.3 48.7 0
02:55 1023 30.21 852 25.16 22.9 73.3 41 9.1 48.4 0
02:56 1023 30.21 852 25.16 22.9 73.3 41 9 48.2 0
02:57 1023 30.21 852 25.16 23 73.4 41 9.1 48.4 0
02:58 1023 30.21 852 25.16 22.9 73.2 41 9.3 48.7 0
02:59 1023 30.21 852 25.16 22.9 73.1 42 9.3 48.7 0
03:00 1023 30.21 852 25.16 22.8 73 41 9.2 48.5 0
03:01 1023 30.21 852 25.16 22.7 72.9 41 9.1 48.4 0
03:02 1023 30.21 852 25.16 22.7 72.9 42 9.2 48.6 0
03:03 1023 30.21 852 25.16 22.7 72.9 42 9.2 48.5 0
03:04 1023 30.21 852 25.16 22.7 72.8 42 9.3 48.8 0
03:05 1023 30.21 852 25.16 22.5 72.6 42 9 48.2 0
03:06 1023 30.21 852 25.16 22.5 72.5 42 9.2 48.6 0
03:07 1023 30.21 852 25.16 22.5 72.4 43 9.5 49.2 0
03:08 1023 30.21 852 25.16 22.3 72.2 43 9.2 48.5 0
03:09 1023 30.21 852 25.16 22.3 72.2 43 9.2 48.6 0
03:10 1023 30.21 852 25.16 22.3 72.1 43 9.2 48.6 0
03:11 1023 30.21 852 25.16 22.3 72.1 42 9 48.3 0
03:12 1023 30.21 852 25.16 22.3 72.2 42 9.2 48.5 0
03:13 1023 30.21 852 25.16 22.3 72.2 43 9.4 49 0
03:14 1023 30.21 852 25.16 22.2 71.9 44 9.4 48.9 0
03:15 1023 30.21 852 25.16 22.2 71.9 44 9.4 48.9 0
03:16 1023 30.21 852 25.16 22.1 71.9 44 9.4 48.8 0
03:17 1023 30.21 852 25.16 22.1 71.8 44 9.3 48.8 0
03:18 1023 30.21 852 25.16 22.1 71.7 44 9.3 48.7 0
03:19 1023 30.21 852 25.16 22 71.6 44 9.4 48.8 0
03:20 1023 30.21 852 25.16 22 71.5 44 9.4 49 0
03:21 1023 30.21 852 25.16 21.9 71.4 44 9.3 48.8 0
03:22 1023 30.21 852 25.16 21.9 71.4 44 9.3 48.7 0
03:23 1023 30.21 852 25.16 21.9 71.4 44 9.4 49 0
03:24 1023 30.21 852 25.16 21.9 71.4 44 9.2 48.5 0
03:25 1023 30.21 852 25.16 22 71.5 44 9.3 48.8 0
03:26 1023 30.21 852 25.16 21.9 71.5 44 9.4 48.9 0
03:27 1023 30.21 852 25.16 21.9 71.4 45 9.5 49.1 0
03:28 1023 30.21 852 25.16 21.8 71.2 45 9.5 49.2 0
03:29 1023 30.21 852 25.16 21.7 71.1 45 9.4 49 0
03:30 1023 30.21 852 25.16 21.7 71 45 9.5 49 0
03:31 1023 30.21 852 25.16 21.7 71 45 9.5 49.1 0
03:32 1023 30.21 852 25.16 21.7 71 45 9.3 48.8 0
03:33 1023 30.21 852 25.16 21.6 71 45 9.5 49.1 0
03:34 1023 30.21 852 25.16 21.6 70.9 46 9.6 49.2 0
03:35 1023 30.21 852 25.16 21.5 70.7 46 9.6 49.3 0
03:36 1023 30.21 852 25.16 21.4 70.6 47 9.7 49.5 0
03:37 1023 30.21 852 25.16 21.2 70.2 47 9.6 49.2 0
03:38 1023 30.21 852 25.16 21.2 70.1 46 9.4 49 0
03:39 1023 30.21 852 25.16 21.3 70.3 47 9.6 49.3 0
03:40 1023 30.21 852 25.16 21.2 70.2 48 9.9 49.8 0
03:41 1023 30.21 852 25.16 21 69.8 49 10 49.9 0
03:42 1023 30.21 852 25.16 20.8 69.4 49 9.9 49.8 0
03:43 1023 30.21 852 25.16 20.6 69.1 50 10.1 50.2 0
03:44 1023 30.21 852 25.16 20.4 68.6 51 10 50 0
03:45 1023 30.21 852 25.16 20.3 68.5 50 9.8 49.7 0
03:46 1023 30.21 852 25.16 20.4 68.6 50 9.6 49.3 0
03:47 1023 30.21 852 25.16 20.4 68.8 50 9.7 49.4 0
03:48 1023 30.21 852 25.16 20.5 68.9 49 9.7 49.4 0
03:49 1023 30.21 852 25.16 20.6 69.1 49 9.7 49.5 0
03:50 1023 30.21 852 25.16 20.7 69.2 50 9.9 49.8 0
03:51 1023 30.21 852 25.16 20.5 69 50 9.9 49.9 0
03:52 1023 30.21 852 25.16 20.4 68.8 50 9.9 49.8 0
03:53 1023 30.21 852 25.16 20.3 68.6 51 9.9 49.9 0
03:54 1023 30.21 852 25.16 20.2 68.4 51 9.8 49.7 0
03:55 1023 30.21 852 25.16 20.1 68.2 52 10.1 50.2 0
03:56 1023 30.21 852 25.16 20 68 52 10 50 0
03:57 1023 30.21 852 25.16 19.9 67.7 53 10 50 0
03:58 1023 30.21 852 25.16 19.8 67.6 53 10 49.9 0
03:59 1023 30.21 852 25.16 19.7 67.5 53 9.9 49.8 0
04:00 1023 30.21 852 25.16 19.7 67.4 53 10 49.9 0
04:01 1023 30.21 852 25.16 19.6 67.3 54 10.1 50.1 0
04:02 1023 30.21 852 25.16 19.3 66.8 54 10 50 0
04:03 1023 30.21 852 25.16 18.9 66 56 9.9 49.9 0
04:04 1023 30.21 852 25.16 18.6 65.6 56 9.8 49.7 0
04:05 1023 30.21 852 25.16 18.5 65.2 56 9.7 49.5 0
04:06 1023 30.21 852 25.16 18.3 64.9 57 9.7 49.5 0
04:07 1023 30.21 852 25.16 18.2 64.7 58 9.8 49.6 0
04:08 1023 30.21 852 25.16 18 64.4 58 9.7 49.5 0
04:09 1023 30.21 852 25.16 17.8 64 59 9.7 49.4 0
04:10 1023 30.21 852 25.16 17.5 63.4 60 9.8 49.6 0
04:11 1023 30.21 852 25.16 17.2 62.9 61 9.7 49.5 0
04:12 1023 30.21 852 25.16 16.9 62.4 62 9.7 49.5 0
04:13 1023 30.21 852 25.16 16.7 62 63 9.6 49.3 0
04:14 1023 30.21 852 25.16 16.5 61.6 63 9.6 49.3 0
04:15 1023 30.21 852 25.16 16.3 61.4 64 9.5 49.1 0
04:16 1023 30.21 852 25.16 16.3 61.3 64 9.4 49 0
04:17 1023 30.21 852 25.16 16.2 61.2 64 9.5 49 0
04:18 1023 30.21 852 25.16 16.2 61.1 64 9.4 49 0
04:19 1023 30.21 852 25.16 16.2 61.1 64 9.4 48.9 0
04:20 1023 30.21 852 25.16 16.2 61.2 63 9.3 48.8 0
04:21 1023 30.21 852 25.16 16.4 61.5 63 9.4 48.9 0
04:22 1023 30.21 852 25.16 16.3 61.3 64 9.5 49.1 0
04:23 1023 30.21 852 25.16 16.1 61 65 9.5 49.2 0
04:24 1023 30.21 852 25.16 16 60.7 65 9.4 49 0
04:25 1023 30.21 852 25.16 15.9 60.6 65 9.5 49 0
04:26 1023 30.21 852 25.16 15.8 60.5 65 9.4 48.9 0
04:27 1023 30.21 852 25.16 15.8 60.4 65 9.4 48.8 0
04:28 1023 30.21 852 25.16 15.9 60.5 65 9.4 49 0
04:29 1023 30.21 852 25.16 15.8 60.4 66 9.4 49 0
04:30 1023 30.21 852 25.16 15.7 60.2 65 9.3 48.7 0
04:31 1023 30.21 852 25.16 15.7 60.3 65 9.3 48.7 0
04:32 1023 30.21 852 25.16 15.7 60.3 65 9.2 48.6 0
04:33 1023 30.21 852 25.16 15.8 60.4 65 9.2 48.6 0
04:34 1023 30.21 852 25.16 15.8 60.5 64 9.2 48.6 0
04:35 1023 30.21 852 25.16 15.9 60.6 64 9.3 48.7 0
04:36 1023 30.21 852 25.16 16 60.8 64 9.3 48.7 0
04:37 1023 30.21 852 25.16 16 60.7 64 9.3 48.7 0
04:38 1023 30.21 852 25.16 16 60.9 64 9.3 48.8 0
04:39 1023 30.21 852 25.16 16.1 61 64 9.3 48.7 0
04:40 1023 30.21 852 25.16 16.3 61.3 62 9.1 48.4 0
04:41 1023 30.21 852 25.16 16.5 61.7 62 9.2 48.5 0
04:42 1023 30.21 852 25.16 16.7 62.1 61 9.2 48.6 0
04:43 1023 30.21 852 25.16 16.9 62.4 60 9.3 48.7 0
04:44 1023 30.21 852 25.16 17 62.6 60 9.3 48.8 0
04:45 1023 30.21 852 25.16 17 62.6 60 9.4 48.9 0
04:46 1023 30.21 852 25.16 17 62.6 61 9.5 49 0
04:47 1023 30.21 852 25.16 16.9 62.4 62 9.6 49.2 0
04:48 1023 30.21 852 25.16 16.7 62 63 9.6 49.3 0
04:49 1023 30.21 852 25.16 16.4 61.6 63 9.4 49 0
04:50 1023 30.21 852 25.16 16.3 61.3 63 9.4 48.9 0
04:51 1023 30.21 852 25.16 16.2 61.2 63 9.2 48.6 0
04:52 1023 30.21 852 25.16 16.3 61.3 63 9.2 48.6 0
04:53 1023 30.21 852 25.16 16.3 61.3 63 9.2 48.6 0
04:54 1023 30.21 852 25.16 16.3 61.3 63 9.2 48.6 0
04:55 1023 30.21 852 25.16 16.4 61.4 62 9.2 48.5 0
04:56 1023 30.21 852 25.16 16.4 61.6 61 9.1 48.4 0
04:57 1023 30.21 852 25.16 16.6 61.8 61 9.1 48.4 0
04:58 1023 30.21 852 25.16 16.6 61.9 61 9.1 48.4 0
04:59 1023 30.21 852 25.16 16.7 62 61 9.2 48.5 0
05:00 1023 30.21 852 25.16 16.6 61.8 62 9.3 48.7 0
05:01 1023 30.21 852 25.16 16.2 61.2 64 9.4 48.9 0
05:02 1023 30.21 852 25.16 15.8 60.5 65 9.4 48.9 0
05:03 1023 30.21 852 25.16 15.5 59.9 67 9.4 49 0
05:04 1023 30.21 852 25.16 15.3 59.5 68 9.4 48.9 0
05:05 1023 30.21 852 25.16 15.1 59.2 68 9.3 48.8 0
05:06 1023 30.21 852 25.16 15.1 59.1 68 9.2 48.6 0
05:07 1023 30.21 852 25.16 15.2 59.4 67 9.1 48.4 0
05:08 1023 30.21 852 25.16 15.4 59.8 66 9.1 48.4 0
05:09 1023 30.21 852 25.16 15.7 60.2 64 9 48.3 0
05:10 1023 30.21 852 25.16 16 60.7 63 9 48.1 0
05:11 1023 30.21 852 25.16 16.3 61.3 62 9 48.3 0
05:12 1023 30.21 852 25.16 16.5 61.6 61 9 48.2 0
05:13 1023 30.21 852 25.16 16.6 61.8 61 9 48.2 0
05:14 1023 30.21 852 25.16 16.6 61.9 60 8.9 48 0
05:15 1023 30.21 852 25.16 16.7 62 60 9 48.1 0
05:16 1023 30.21 852 25.16 16.7 62.1 60 9.1 48.3 0
05:17 1023 30.21 852 25.16 16.8 62.2 60 9.1 48.4 0
05:18 1023 30.21 852 25.16 16.9 62.4 60 9.1 48.4 0
05:19 1023 30.21 852 25.16 17 62.5 59 8.9 48.1 0
05:20 1023 30.21 852 25.16 17.1 62.8 59 9.1 48.3 0
05:21 1023 30.21 852 25.16 17.2 63 58 9 48.3 0
05:22 1023 30.21 852 25.16 17.3 63.2 58 9 48.3 0
05:23 1023 30.21 852 25.16 17.3 63.2 58 9.1 48.4 0
05:24 1023 30.21 852 25.16 17.3 63.1 58 9 48.2 0
05:25 1023 30.21 852 25.16 17.4 63.2 58 9.1 48.3 0
05:26 1023 30.21 852 25.16 17.3 63.2 58 9.1 48.4 0
05:27 1023 30.21 852 25.16 17.2 63 58 9.1 48.4 0
05:28 1023 30.21 852 25.16 17.1 62.8 59 9.1 48.4 0
05:29 1023 30.21 852 25.16 17.1 62.7 59 9.1 48.3 0
05:30 1023 30.21 852 25.16 17 62.7 59 9.2 48.5 0
05:31 1023 30.21 852 25.16 17 62.5 60 9.2 48.5 0
05:32 1023 30.21 852 25.16 16.8 62.2 60 9.2 48.5 0
05:33 1023 30.21 852 25.16 16.7 62.1 60 9.1 48.4 0
05:34 1023 30.21 852 25.16 16.7 62.1 60 9 48.2 0
05:35 1023 30.21 852 25.16 16.8 62.2 59 8.9 48.1 0
05:36 1023 30.21 852 25.16 16.8 62.3 59 9 48.2 0
05:37 1023 30.21 852 25.16 16.9 62.4 60 9.1 48.4 0
05:38 1023 30.21 852 25.16 16.8 62.3 60 9 48.3 0
05:39 1023 30.21 852 25.16 16.8 62.3 59 8.9 48.1 0
05:40 1023 30.21 852 25.16 16.9 62.4 59 8.9 47.9 0
05:41 1023 30.21 852 25.16 17 62.6 59 9 48.1 0
05:42 1023 30.21 852 25.16 17 62.6 59 9 48.1 0
05:43 1023 30.21 852 25.16 16.8 62.3 59 8.9 48 0
05:44 1023 30.21 852 25.16 16.7 62.1 60 8.9 48 0
05:45 1023 30.21 852 25.16 16.5 61.7 60 8.9 48 0
05:46 1023 30.21 852 25.16 16.4 61.5 61 8.9 48.1 0
05:47 1023 30.21 852 25.16 16.3 61.3 61 8.9 48 0
05:48 1023 30.21 852 25.16 16.2 61.1 61 8.8 47.9 0
05:49 1023 30.21 852 25.16 16.1 61 62 8.8 47.8 0
05:50 1023 30.21 852 25.16 16 60.8 62 8.9 48 0
05:51 1023 30.21 852 25.16 15.8 60.5 64 9 48.2 0
05:52 1023 30.21 852 25.16 15.5 60 65 9 48.2 0
05:53 1023 30.21 852 25.16 15.4 59.6 66 9 48.2 0
05:54 1023 30.21 852 25.16 15.1 59.3 66 9 48.1 0
05:55 1023 30.21 852 25.16 15 59.1 66 8.9 48 0
05:56 1023 30.21 852 25.16 15 59 67 9 48.1 0
05:57 1023 30.21 852 25.16 14.9 58.9 67 8.9 48.1 0
05:58 1023 30.21 852 25.16 15 58.9 67 8.9 48.1 0
05:59 1023 30.21 852 25.16 14.9 58.9 67 9 48.2 0
06:00 1023 30.21 852 25.16 14.9 58.8 67 8.9 48.1 0
06:01 1023 30.21 852 25.16 15 58.9 67 8.9 48 0
06:02 1023 30.21 852 25.16 15.1 59.3 66 8.8 47.9 0
06:03 1023 30.21 852 25.16 15.3 59.6 65 8.8 47.8 0
06:04 1023 30.21 852 25.16 15.5 59.9 64 8.9 48 0
06:05 1023 30.21 852 25.16 15.6 60 64 8.9 48 0
06:06 1023 30.21 852 25.16 15.6 60 64 9 48.1 0
06:07 1023 30.21 852 25.16 15.5 59.9 65 8.9 48 0
06:08 1023 30.21 852 25.16 15.5 59.9 65 8.9 48.1 0
06:09 1023 30.21 852 25.16 15.6 60 64 8.8 47.8 0
06:10 1023 30.21 852 25.16 15.7 60.3 63 8.9 48 0
06:11 1023 30.21 852 25.16 15.9 60.7 63 9 48.2 0
06:12 1023 30.21 852 25.16 15.9 60.6 63 9.1 48.3 0
06:13 1023 30.21 852 25.16 15.9 60.7 63 9.1 48.3 0
06:14 1023 30.21 852 25.16 15.9 60.6 63 9 48.2 0
06:15 1023 30.21 852 25.16 15.9 60.6 63 9 48.2 0
06:16 1023 30.21 852 25.16 16 60.8 63 9.1 48.4 0
06:17 1023 30.21 852 25.16 16 60.8 63 9 48.1 0
06:18 1023 30.21 852 25.16 16 60.8 63 8.9 48.1 0
06:19 1023 30.21 853 25.19 16.1 60.9 61 8.7 47.7 0
06:20 1023 30.21 853 25.19 16.2 61.1 62 9 48.1 0
06:21 1023 30.21 852 25.16 16.1 61.1 62 9 48.3 0
06:22 1023 30.21 852 25.16 16.1 61 63 9.2 48.6 0
06:23 1023 30.21 852 25.16 16 60.8 62 8.9 48 0
06:24 1023 30.21 852 25.16 15.9 60.7 64 9.1 48.5 0
06:25 1023 30.21 852 25.16 15.8 60.4 65 9.2 48.6 0
06:26 1023 30.21 853 25.19 15.7 60.3 66 9.5 49 0
06:27 1023 30.21 853 25.19 15.5 59.8 66 9.2 48.5 0
06:28 1023 30.21 853 25.19 15.5 59.9 65 9.1 48.4 0
06:29 1023 30.21 853 25.19 15.7 60.2 64 9.1 48.3 0
06:30 1023 30.21 852 25.16 15.8 60.4 65 9.3 48.7 0
06:31 1023 30.21 853 25.19 15.7 60.3 65 9.2 48.6 0
06:32 1023 30.21 852 25.16 15.8 60.4 65 9.3 48.8 0
06:33 1023 30.21 853 25.19 15.8 60.5 66 9.5 49 0
06:34 1023 30.21 853 25.19 15.8 60.4 66 9.5 49.1 0
06:35 1023 30.21 853 25.19 15.8 60.4 66 9.6 49.2 0
06:36 1023 30.21 853 25.19 15.7 60.3 67 9.6 49.3 0
06:37 1023 30.21 853 25.19 15.8 60.5 66 9.5 49.1 0
06:38 1023 30.21 853 25.19 15.9 60.6 65 9.4 48.9 0
06:39 1023 30.21 853 25.19 16 60.8 64 9.3 48.7 0
06:40 1023 30.21 853 25.19 16.1 61 62 8.9 48.1 0
06:41 1024 30.24 853 25.19 16.3 61.4 61 8.9 48 0
06:42 1024 30.24 853 25.19 16.5 61.7 60 8.8 47.8 0
06:43 1024 30.24 853 25.19 16.8 62.2 59 8.8 47.8 0
06:44 1024 30.24 853 25.19 17 62.5 60 9.1 48.4 0
06:45 1024 30.24 853 25.19 17.1 62.9 60 9.4 48.8 0
06:46 1024 30.24 853 25.19 17.3 63.1 61 9.7 49.5 0
06:47 1024 30.24 853 25.19 17.3 63.1 60 9.6 49.2 0
06:48 1024 30.24 853 25.19 17.2 62.9 60 9.5 49.1 0
06:49 1024 30.24 853 25.19 17.1 62.7 62 9.8 49.7 0
06:50 1024 30.24 853 25.19 17 62.5 62 9.7 49.5 0
06:51 1023 30.21 853 25.19 16.9 62.4 64 10.2 50.3 0
06:52 1023 30.21 853 25.19 16.8 62.3 64 10 49.9 0
06:53 1023 30.21 853 25.19 16.8 62.2 64 10 49.9 0
06:54 1023 30.21 853 25.19 16.8 62.3 64 10 49.9 0
06:55 1023 30.21 853 25.19 16.9 62.3 64 10.1 50.2 0
06:56 1023 30.21 853 25.19 16.9 62.3 63 9.8 49.7 0
06:57 1023 30.21 853 25.19 16.9 62.5 64 10.1 50.2 0
06:58 1023 30.21 853 25.19 17 62.6 65 10.4 50.6 0
06:59 1023 30.21 853 25.19 17.1 62.7 64 10.2 50.3 0
07:00 1023 30.21 853 25.19 17.2 62.9 65 10.7 51.2 0
07:01 1023 30.21 853 25.19 17.3 63.1 64 10.4 50.7 0
07:02 1023 30.21 853 25.19 17.4 63.3 65 10.8 51.5 0
07:03 1023 30.21 853 25.19 17.6 63.7 64 10.7 51.3 0
07:04 1023 30.21 853 25.19 17.7 63.9 62 10.5 50.9 0
07:05 1023 30.21 853 25.19 17.9 64.2 61 10.4 50.6 0
07:06 1023 30.21 853 25.19 18 64.3 61 10.4 50.8 0
07:07 1023 30.21 853 25.19 18.1 64.5 63 11 51.9 0
07:08 1023 30.21 853 25.19 18.2 64.8 62 11 51.8 0
07:09 1023 30.21 853 25.19 18.3 65 63 11.2 52.1 0
07:10 1023 30.21 853 25.19 18.4 65.2 65 11.7 53.1 0
07:11 1023 30.21 853 25.19 18.6 65.4 58 10.2 50.4 0
07:12 1023 30.21 853 25.19 18.7 65.6 60 10.9 51.6 0
07:13 1023 30.21 853 25.19 18.7 65.7 60 11 51.8 0
07:14 1023 30.21 853 25.19 18.8 65.8 61 11.3 52.3 0
07:15 1023 30.21 853 25.19 18.8 65.9 58 10.4 50.8 0
07:16 1023 30.21 853 25.19 18.9 65.9 59 10.7 51.2 0
07:17 1023 30.21 853 25.19 18.9 66 59 10.9 51.5 0
07:18 1023 30.21 853 25.19 18.9 66 60 11.1 52.1 0
07:19 1023 30.21 853 25.19 18.9 65.9 59 10.9 51.6 0
07:20 1023 30.21 853 25.19 19 66.1 60 11 51.9 0
07:21 1023 30.21 853 25.19 19 66.2 63 11.9 53.4 0
07:22 1023 30.21 853 25.19 19.1 66.3 61 11.4 52.6 0
07:23 1023 30.21 853 25.19 19.2 66.6 60 11.3 52.4 0
07:24 1023 30.21 853 25.19 19.3 66.8 60 11.6 52.8 0
07:25 1023 30.21 853 25.19 19.4 67 62 12 53.5 0
07:26 1023 30.21 853 25.19 19.6 67.2 60 11.8 53.3 0
07:27 1023 30.21 853 25.19 19.7 67.4 62 12.4 54.4 0
07:28 1023 30.21 853 25.19 19.8 67.6 59 11.6 52.8 0
07:29 1023 30.21 853 25.19 19.8 67.7 58 11.4 52.4 0
07:30 1023 30.21 853 25.19 19.9 67.8 58 11.6 52.9 0
07:31 1023 30.21 853 25.19 19.9 67.9 58 11.5 52.8 0
07:32 1023 30.21 853 25.19 19.9 67.8 60 12 53.7 0
07:33 1023 30.21 853 25.19 19.9 67.8 60 11.9 53.5 0
07:34 1023 30.21 853 25.19 19.9 67.7 58 11.5 52.6 0
07:35 1023 30.21 853 25.19 19.8 67.7 60 11.9 53.4 0
07:36 1023 30.21 853 25.19 19.8 67.7 60 11.9 53.5 0
07:37 1023 30.21 853 25.19 19.8 67.7 61 12.2 53.9 0
07:38 1023 30.21 853 25.19 19.9 67.8 60 11.9 53.4 0
07:39 1023 30.21 853 25.19 19.9 67.9 59 11.8 53.2 0
07:40 1023 30.21 853 25.19 20 68 61 12.3 54.2 0
07:41 1023 30.21 853 25.19 20 68.1 60 12.2 54 0
07:42 1023 30.21 853 25.19 20.1 68.2 61 12.5 54.5 0
07:43 1023 30.21 853 25.19 20.1 68.2 59 11.9 53.4 0
07:44 1024 30.24 853 25.19 20.1 68.2 57 11.5 52.7 0
07:45 1024 30.24 853 25.19 20.2 68.3 58 11.9 53.4 0
07:46 1024 30.24 853 25.19 20.2 68.4 58 11.7 53.1 0
07:47 1024 30.24 853 25.19 20.3 68.5 58 11.9 53.4 0
07:48 1024 30.24 853 25.19 20.3 68.6 60 12.3 54.2 0
07:49 1024 30.24 853 25.19 20.4 68.7 57 11.8 53.2 0
07:50 1024 30.24 853 25.19 20.4 68.8 59 12.2 53.9 0
07:51 1024 30.24 853 25.19 20.5 69 59 12.4 54.3 0
07:52 1024 30.24 853 25.19 20.6 69.1 61 13 55.4 0
07:53 1024 30.24 853 25.19 20.8 69.4 58 12.3 54.1 0
07:54 1024 30.24 853 25.19 20.8 69.5 56 11.9 53.4 0
07:55 1024 30.24 853 25.19 20.9 69.6 55 11.7 53.1 0
07:56 1024 30.24 853 25.19 21 69.8 55 11.8 53.2 0
07:57 1024 30.24 853 25.19 21.1 70 56 12.2 53.9 0
07:58 1024 30.24 853 25.19 21.2 70.2 57 12.5 54.4 0
07:59 1024 30.24 853 25.19 21.3 70.4 55 12.1 53.9 0
08:00 1024 30.24 853 25.19 21.5 70.6 57 12.6 54.7 0
08:01 1024 30.24 853 25.19 21.6 70.8 56 12.6 54.6 0
08:02 1024 30.24 853 25.19 21.7 71 54 12.2 54 0
08:03 1023 30.21 853 25.19 21.7 71.1 53 11.8 53.3 0
08:04 1024 30.24 853 25.19 21.8 71.2 53 12 53.6 0
08:05 1024 30.24 853 25.19 21.9 71.4 55 12.5 54.6 0
08:06 1024 30.24 853 25.19 22.1 71.7 51 11.5 52.8 0
08:07 1024 30.24 853 25.19 22.2 72 52 12 53.6 0
08:08 1024 30.24 853 25.19 22.4 72.3 51 11.9 53.5 0
08:09 1024 30.24 853 25.19 22.5 72.5 49 11.4 52.5 0
08:10 1024 30.24 853 25.19 22.7 72.8 49 11.6 52.9 0
08:11 1024 30.24 853 25.19 22.9 73.2 53 13 55.4 0
08:12 1024 30.24 853 25.19 23.1 73.6 52 12.9 55.2 0
08:13 1024 30.24 853 25.19 23.2 73.7 47 11.5 52.6 0
08:14 1024 30.24 853 25.19 23.4 74 48 11.9 53.4 0
08:15 1024 30.24 853 25.19 23.5 74.3 47 11.9 53.4 0
08:16 1024 30.24 853 25.19 23.7 74.6 50 12.7 54.9 0
08:17 1024 30.24 853 25.19 23.9 74.9 50 12.9 55.3 0
08:18 1024 30.24 853 25.19 24.1 75.3 44 11.2 52.2 0
08:19 1024 30.24 853 25.19 24.2 75.6 46 12.1 53.8 0
08:20 1023 30.21 853 25.19 24.3 75.7 49 13.1 55.5 0
08:21 1023 30.21 853 25.19 24.3 75.8 48 12.7 54.9 0
08:22 1023 30.21 853 25.19 24.3 75.8 47 12.5 54.5 0
08:23 1023 30.21 853 25.19 24.3 75.8 49 13.2 55.8 0
08:24 1023 30.21 853 25.19 24.4 75.8 48 12.7 54.9 0
08:25 1023 30.21 853 25.19 24.4 75.9 44 11.5 52.7 0
08:26 1023 30.21 853 25.19 24.3 75.8 48 12.8 55 0
08:27 1023 30.21 853 25.19 24.4 75.9 47 12.6 54.8 0
08:28 1023 30.21 853 25.19 24.5 76.1 49 13.3 55.9 0
08:29 1023 30.21 853 25.19 24.6 76.4 47 12.8 55.1 0
08:30 1023 30.21 853 25.19 24.7 76.5 43 11.7 53 0
08:31 1023 30.21 853 25.19 24.9 76.7 46 12.7 54.8 0
08:32 1023 30.21 853 25.19 24.9 76.9 45 12.5 54.5 0
08:33 1023 30.21 853 25.19 24.9 76.9 42 11.3 52.3 0
08:34 1023 30.21 853 25.19 25.1 77.2 35 9 48.2 0
08:35 1023 30.21 853 25.19 25.1 77.1 42 11.5 52.7 0
08:36 1023 30.21 853 25.19 25.2 77.4 42 11.5 52.7 0
08:37 1023 30.21 853 25.19 25.3 77.5 39 10.5 51 0
08:38 1023 30.21 853 25.19 25.2 77.4 40 11 51.8 0
08:39 1023 30.21 852 25.16 25.2 77.3 41 11.2 52.1 0
08:40 1023 30.21 852 25.16 25.2 77.3 45 12.5 54.5 0
08:41 1023 30.21 852 25.16 25.1 77.2 43 11.9 53.4 0
08:42 1023 30.21 852 25.16 25 77 44 12.1 53.8 0
08:43 1023 30.21 852 25.16 24.9 76.8 43 11.6 52.9 0
08:44 1023 30.21 852 25.16 24.9 76.8 43 11.7 53.1 0
08:45 1023 30.21 852 25.16 24.9 76.8 43 11.6 52.9 0
08:46 1023 30.21 852 25.16 25.1 77.1 42 11.6 52.8 0
08:47 1023 30.21 852 25.16 25.1 77.2 41 11.1 52 0
08:48 1023 30.21 852 25.16 25.1 77.2 43 11.8 53.2 0
08:49 1023 30.21 852 25.16 25.1 77.2 41 11 51.9 0
08:50 1023 30.21 852 25.16 25.1 77.2 40 10.8 51.4 0
08:51 1023 30.21 852 25.16 25.1 77.1 40 10.7 51.3 0
08:52 1023 30.21 852 25.16 25.1 77.1 41 11.1 52 0
08:53 1023 30.21 852 25.16 25.1 77.1 43 12 53.6 0
08:54 1023 30.21 852 25.16 25 77 45 12.6 54.7 0
08:55 1023 30.21 852 25.16 25 76.9 43 11.6 52.9 0
08:56 1023 30.21 852 25.16 24.9 76.8 44 12 53.5 0
08:57 1023 30.21 852 25.16 24.8 76.6 42 11.1 52 0
08:58 1023 30.21 852 25.16 24.7 76.4 47 12.7 54.8 0
08:59 1023 30.21 852 25.16 24.7 76.4 41 10.6 51.2 0
09:00 1023 30.21 852 25.16 24.6 76.2 48 12.9 55.3 0
09:01 1023 30.21 852 25.16 24.6 76.2 47 12.7 54.9 0
09:02 1023 30.21 852 25.16 24.6 76.2 48 13.1 55.6 0
09:03 1023 30.21 852 25.16 24.6 76.3 46 12.4 54.3 0
09:04 1023 30.21 852 25.16 24.7 76.4 49 13.6 56.4 0
09:05 1023 30.21 852 25.16 24.7 76.4 41 10.8 51.5 0
09:06 1023 30.21 852 25.16 24.7 76.4 47 12.7 54.8 0
09:07 1023 30.21 852 25.16 24.7 76.5 47 12.8 55.1 0
09:08 1023 30.21 852 25.16 24.8 76.6 52 14.3 57.8 0
09:09 1023 30.21 852 25.16 24.8 76.6 46 12.5 54.4 0
09:10 1023 30.21 852 25.16 24.8 76.6 47 13 55.4 0
09:11 1023 30.21 852 25.16 24.7 76.5 49 13.5 56.4 0
09:12 1023 30.21 852 25.16 24.7 76.5 44 12 53.6 0
09:13 1023 30.21 852 25.16 24.8 76.6 49 13.4 56.1 0
09:14 1023 30.21 852 25.16 24.7 76.5 50 13.9 57 0
09:15 1023 30.21 852 25.16 24.8 76.6 43 11.4 52.6 0
09:16 1023 30.21 852 25.16 24.8 76.7 42 11.2 52.2 0
09:17 1023 30.21 852 25.16 24.9 76.8 42 11.3 52.4 0
09:18 1023 30.21 852 25.16 25 76.9 44 12.2 54 0
09:19 1023 30.21 852 25.16 25.1 77.1 45 12.5 54.5 0
09:20 1023 30.21 852 25.16 25.2 77.4 48 13.8 56.8 0
09:21 1023 30.21 852 25.16 25.3 77.5 42 11.6 52.9 0
09:22 1023 30.21 852 25.16 25.4 77.7 42 11.7 53.1 0
09:23 1023 30.21 852 25.16 25.5 77.9 45 12.7 54.9 0
09:24 1023 30.21 852 25.16 25.6 78 48 13.8 56.8 0
09:25 1023 30.21 852 25.16 25.6 78 45 12.8 55.1 0
09:26 1023 30.21 852 25.16 25.5 78 44 12.4 54.4 0
09:27 1023 30.21 852 25.16 25.5 77.9 46 13.3 56 0
09:28 1023 30.21 852 25.16 25.5 77.9 45 13 55.5 0
09:29 1023 30.21 852 25.16 25.5 77.9 41 11.6 52.9 0
09:30 1023 30.21 852 25.16 25.6 78.1 40 11.2 52.1 0
09:31 1023 30.21 852 25.16 25.7 78.3 45 13.2 55.8 0
09:32 1023 30.21 852 25.16 25.9 78.5 41 11.8 53.2 0
09:33 1023 30.21 852 25.16 26 78.8 41 12.1 53.8 0
09:34 1023 30.21 852 25.16 26 78.9 42 12.4 54.3 0
09:35 1023 30.21 852 25.16 26.2 79.1 41 12.3 54.1 0
09:36 1023 30.21 852 25.16 26.3 79.3 40 11.8 53.3 0
09:37 1023 30.21 852 25.16 26.4 79.5 43 13.1 55.6 0
09:38 1023 30.21 852 25.16 26.4 79.6 45 13.9 57 0
09:39 1023 30.21 852 25.16 26.4 79.6 47 14.4 57.9 0
09:40 1023 30.21 852 25.16 26.4 79.4 42 12.5 54.6 0
09:41 1023 30.21 852 25.16 26.3 79.3 44 13.4 56.2 0
09:42 1023 30.21 852 25.16 26.2 79.1 45 13.5 56.4 0
09:43 1023 30.21 852 25.16 26.1 79 43 12.8 55 0
09:44 1023 30.21 852 25.16 26.1 79 46 13.9 57.1 0
09:45 1023 30.21 852 25.16 26.2 79.2 43 12.7 54.9 0
09:46 1023 30.21 852 25.16 26.3 79.4 41 12.3 54.1 0
09:47 1023 30.21 852 25.16 26.4 79.4 44 13.3 56 0
09:48 1023 30.21 852 25.16 26.4 79.5 45 13.6 56.6 0
09:49 1023 30.21 852 25.16 26.5 79.6 40 12 53.5 0
09:50 1023 30.21 852 25.16 26.5 79.7 41 12.4 54.4 0
09:51 1023 30.21 852 25.16 26.6 79.8 41 12.6 54.7 0
09:52 1023 30.21 852 25.16 26.6 79.9 40 12.1 53.9 0
09:53 1023 30.21 852 25.16 26.6 79.9 41 12.4 54.3 0
09:54 1023 30.21 852 25.16 26.6 79.9 40 12.3 54.1 0
09:55 1023 30.21 852 25.16 26.6 79.8 40 12.2 53.9 0
09:56 1023 30.21 852 25.16 26.5 79.7 44 13.4 56.1 0
09:57 1023 30.21 852 25.16 26.5 79.6 42 12.6 54.7 0
09:58 1023 30.21 852 25.16 26.5 79.7 42 12.7 54.9 0
09:59 1023 30.21 852 25.16 26.6 79.8 46 14.2 57.6 0
10:00 1023 30.21 852 25.16 26.6 80 38 11.5 52.7 0
10:01 1023 30.21 852 25.16 26.7 80.1 43 13.4 56.2 0
10:02 1023 30.21 852 25.16 26.8 80.3 40 12.4 54.3 0
10:03 1023 30.21 852 25.16 26.9 80.4 40 12.3 54.1 0
10:04 1023 30.21 852 25.16 26.9 80.4 44 13.7 56.7 0
10:05 1023 30.21 852 25.16 27 80.5 41 13 55.4 0
10:06 1023 30.21 852 25.16 26.9 80.5 40 12.4 54.3 0
10:07 1023 30.21 852 25.16 26.9 80.3 43 13.3 56 0
10:08 1023 30.21 852 25.16 26.8 80.3 41 12.6 54.6 0
10:09 1023 30.21 852 25.16 26.8 80.2 46 14.3 57.7 0
10:10 1023 30.21 852 25.16 26.9 80.4 43 13.4 56.1 0
10:11 1023 30.21 852 25.16 27 80.7 40 12.5 54.6 0
10:12 1023 30.21 852 25.16 27.1 80.8 37 11.6 52.8 0
10:13 1023 30.21 852 25.16 27 80.7 41 12.9 55.2 0
10:14 1023 30.21 852 25.16 27.1 80.8 42 13.4 56.1 0
10:15 1023 30.21 852 25.16 27.2 80.9 42 13.2 55.8 0
10:16 1023 30.21 852 25.16 27.3 81.1 39 12.4 54.2 0
10:17 1023 30.21 852 25.16 27.2 81 44 14.2 57.5 0
10:18 1023 30.21 852 25.16 27.2 80.9 41 13.1 55.5 0
10:19 1023 30.21 852 25.16 27.1 80.8 40 12.6 54.7 0
10:20 1023 30.21 852 25.16 27.1 80.7 41 12.9 55.2 0
10:21 1023 30.21 852 25.16 27.2 80.9 40 12.6 54.7 0
10:22 1023 30.21 852 25.16 27.2 81 40 12.8 55.1 0
10:23 1023 30.21 852 25.16 27.3 81.1 38 11.9 53.4 0
10:24 1023 30.21 852 25.16 27.4 81.3 40 12.7 54.9 0
10:25 1023 30.21 852 25.16 27.5 81.5 41 13.5 56.3 0
10:26 1023 30.21 852 25.16 27.7 81.9 36 11.7 53 0
10:27 1023 30.21 852 25.16 27.9 82.2 35 11.1 52 0
10:28 1023 30.21 852 25.16 28 82.4 36 11.6 52.9 0
10:29 1023 30.21 852 25.16 28.1 82.5 34 11.1 51.9 0
10:30 1023 30.21 852 25.16 28.2 82.8 35 11.5 52.8 0
10:31 1023 30.21 852 25.16 28.2 82.8 36 11.9 53.4 0
10:32 1023 30.21 852 25.16 28.2 82.8 38 13 55.3 0
10:33 1023 30.21 852 25.16 28.4 83 35 11.8 53.2 0
10:34 1023 30.21 852 25.16 28.4 83.2 37 12.8 55 0
10:35 1023 30.21 852 25.16 28.4 83 36 12.3 54.1 0
10:36 1023 30.21 852 25.16 28.4 83.1 34 11.4 52.6 0
10:37 1023 30.21 852 25.16 28.3 83 39 13.2 55.7 0
10:38 1023 30.21 852 25.16 28.4 83.2 36 12.1 53.9 0
10:39 1023 30.21 852 25.16 28.6 83.4 34 11.4 52.5 0
10:40 1023 30.21 852 25.16 28.6 83.6 37 12.7 54.8 0
10:41 1023 30.21 852 25.16 28.8 83.8 34 11.6 53 0
10:42 1023 30.21 852 25.16 28.9 83.9 33 11.2 52.1 0
10:43 1023 30.21 852 25.16 28.9 84 38 13.3 55.9 0
10:44 1023 30.21 852 25.16 29 84.2 31 10.5 50.9 0
10:45 1022 30.18 852 25.16 28.9 84 32 10.7 51.2 0
10:46 1022 30.18 852 25.16 28.9 84 36 12.5 54.4 0
10:47 1022 30.18 852 25.16 28.9 84 32 10.6 51.1 0
10:48 1022 30.18 852 25.16 28.9 83.9 32 10.6 51.1 0
10:49 1022 30.18 852 25.16 28.9 84 31 10.3 50.6 0
10:50 1022 30.18 852 25.16 29 84.2 36 12.6 54.7 0
10:51 1022 30.18 852 25.16 29.1 84.4 33 11.5 52.7 0
10:52 1022 30.18 852 25.16 29.1 84.4 38 13.6 56.4 0
10:53 1022 30.18 852 25.16 29.2 84.5 34 12.2 53.9 0
10:54 1022 30.18 852 25.16 29.3 84.7 36 13.1 55.5 0
10:55 1022 30.18 852 25.16 29.6 85.2 33 11.9 53.5 0
10:56 1022 30.18 852 25.16 29.7 85.5 33 12.1 53.8 0
10:57 1022 30.18 852 25.16 29.8 85.7 31 11.1 52.1 0
10:58 1022 30.18 852 25.16 29.9 85.9 31 11.4 52.6 0
10:59 1022 30.18 851 25.13 30 86.1 30 10.8 51.4 0
11:00 1022 30.18 851 25.13 30 86.1 32 12.1 53.7 0
11:01 1022 30.18 851 25.13 30.2 86.3 31 11.5 52.6 0
11:02 1022 30.18 851 25.13 30.1 86.3 30 11.2 52.1 0
11:03 1022 30.18 851 25.13 30.2 86.3 31 11.6 52.9 0
11:04 1022 30.18 851 25.13 30.1 86.1 30 11 51.8 0
11:05 1022 30.18 851 25.13 30.1 86.2 34 12.6 54.7 0
11:06 1022 30.18 851 25.13 30.2 86.3 30 11.1 52 0
11:07 1022 30.18 851 25.13 30.2 86.4 36 13.8 56.8 0
11:08 1022 30.18 851 25.13 30.4 86.8 32 12.4 54.4 0
11:09 1022 30.18 851 25.13 30.6 87.1 35 13.7 56.6 0
11:10 1022 30.18 851 25.13 30.7 87.2 34 13.5 56.4 0
11:11 1022 30.18 851 25.13 30.6 87.1 31 11.8 53.2 0
11:12 1022 30.18 851 25.13 30.5 86.9 30 11.1 52 0
11:13 1022 30.18 851 25.13 30.4 86.6 31 11.6 52.9 0
11:14 1022 30.18 851 25.13 30.4 86.7 34 13.3 55.9 0
11:15 1022 30.18 851 25.13 30.4 86.8 30 11.1 51.9 0
11:16 1022 30.18 851 25.13 30.5 86.9 31 11.7 53.1 0
11:17 1022 30.18 851 25.13 30.6 87.1 32 12.4 54.4 0
11:18 1022 30.18 851 25.13 30.7 87.2 35 13.6 56.6 0
11:19 1022 30.18 851 25.13 30.8 87.4 33 13 55.4 0
11:20 1022 30.18 851 25.13 31 87.7 36 14.5 58.2 0
11:21 1022 30.18 851 25.13 31.1 88 31 12.4 54.3 0
11:22 1022 30.18 851 25.13 31.1 88 30 11.9 53.3 0
11:23 1022 30.18 851 25.13 31 87.9 29 11.4 52.5 0
11:24 1022 30.18 851 25.13 31 87.9 34 13.7 56.6 0
11:25 1022 30.18 851 25.13 31.1 87.9 28 11 51.8 0
11:26 1022 30.18 851 25.13 31 87.8 28 10.5 50.9 0
11:27 1022 30.18 851 25.13 31 87.7 29 11.3 52.3 0
11:28 1022 30.18 851 25.13 31.1 87.9 29 11.5 52.6 0
11:29 1022 30.18 851 25.13 31.1 88 32 12.6 54.7 0
11:30 1022 30.18 851 25.13 31.1 88 30 11.8 53.3 0
11:31 1022 30.18 851 25.13 31.1 88 30 11.6 53 0
11:32 1022 30.18 851 25.13 31.1 88 33 13.3 56 0
11:33 1022 30.18 851 25.13 31.1 88 31 12.4 54.3 0
11:34 1022 30.18 851 25.13 31.2 88.1 33 13.2 55.7 0
11:35 1022 30.18 851 25.13 31.2 88.1 31 12.6 54.7 0
11:36 1022 30.18 851 25.13 31.2 88.1 30 11.9 53.3 0
11:37 1022 30.18 851 25.13 31.2 88.2 34 13.9 57 0
11:38 1022 30.18 851 25.13 31.3 88.4 28 10.9 51.6 0
11:39 1022 30.18 851 25.13 31.4 88.5 28 11.1 52 0
11:40 1022 30.18 851 25.13 31.4 88.6 28 11.3 52.3 0
11:41 1022 30.18 851 25.13 31.5 88.6 29 11.5 52.7 0
11:42 1022 30.18 851 25.13 31.5 88.6 28 11 51.8 0
11:43 1022 30.18 851 25.13 31.7 89 33 13.5 56.4 0
11:44 1022 30.18 851 25.13 31.9 89.4 28 11.4 52.6 0
11:45 1022 30.18 851 25.13 31.9 89.5 28 11.6 52.9 0
11:46 1022 30.18 851 25.13 31.9 89.3 28 11.2 52.2 0
11:47 1022 30.18 851 25.13 31.9 89.4 30 12.6 54.6 0
11:48 1022 30.18 851 25.13 32.1 89.8 30 12.6 54.7 0
11:49 1022 30.18 851 25.13 32.1 89.8 27 11.2 52.2 0
11:50 1022 30.18 851 25.13 32 89.7 28 11.7 53.1 0
11:51 1022 30.18 851 25.13 32 89.6 26 10.7 51.3 0
11:52 1022 30.18 851 25.13 32 89.5 27 10.7 51.3 0
11:53 1022 30.18 851 25.13 32 89.5 28 11.6 52.8 0
11:54 1022 30.18 851 25.13 32.1 89.7 26 10.4 50.6 0
11:55 1022 30.18 851 25.13 32 89.5 27 10.9 51.6 0
11:56 1022 30.18 851 25.13 31.9 89.4 27 10.8 51.4 0
11:57 1022 30.18 851 25.13 31.9 89.3 27 11.1 52.1 0
11:58 1022 30.18 851 25.13 31.9 89.4 30 12.3 54.2 0
11:59 1022 30.18 851 25.13 31.9 89.4 29 11.8 53.3 0
12:00 1022 30.18 851 25.13 32.1 89.8 29 12.1 53.7 0
12:01 1022 30.18 851 25.13 32.2 90 30 12.9 55.3 0
12:02 1022 30.18 851 25.13 32.4 90.3 29 12.2 54 0
12:03 1022 30.18 851 25.13 32.4 90.3 29 12.5 54.5 0
12:04 1022 30.18 851 25.13 32.4 90.2 33 14.4 57.9 0
12:05 1022 30.18 851 25.13 32.3 90.1 28 11.9 53.5 0
12:06 1022 30.18 851 25.13 32.3 90.1 27 11.3 52.3 0
12:07 1022 30.18 851 25.13 32.3 90.1 28 11.7 53 0
12:08 1022 30.18 851 25.13 32.4 90.3 27 11.4 52.4 0
12:09 1022 30.18 851 25.13 32.5 90.5 27 11.2 52.2 0
12:10 1022 30.18 851 25.13 32.5 90.4 26 11.1 52 0
12:11 1022 30.18 851 25.13 32.4 90.4 26 11 51.7 0
12:12 1022 30.18 851 25.13 32.4 90.4 26 10.9 51.7 0
12:13 1022 30.18 851 25.13 32.4 90.4 26 10.7 51.2 0
12:14 1022 30.18 851 25.13 32.5 90.6 26 10.9 51.7 0
12:15 1022 30.18 851 25.13 32.8 91 27 11.7 53.1 0
12:16 1022 30.18 851 25.13 32.8 91.1 26 11.1 51.9 0
12:17 1022 30.18 851 25.13 32.7 90.8 25 10.6 51.1 0
12:18 1022 30.18 851 25.13 32.6 90.7 27 11.5 52.8 0
12:19 1021 30.15 851 25.13 32.6 90.8 30 13 55.5 0
12:20 1021 30.15 851 25.13 32.7 90.9 27 11.9 53.5 0
12:21 1021 30.15 851 25.13 32.8 91 27 12 53.6 0
12:22 1021 30.15 851 25.13 32.9 91.3 27 11.8 53.2 0
12:23 1021 30.15 851 25.13 33 91.4 26 11.2 52.1 0
12:24 1021 30.15 851 25.13 33.2 91.7 25 10.6 51.1 0
12:25 1021 30.15 851 25.13 33.2 91.8 28 12.8 55.1 0
12:26 1021 30.15 851 25.13 33.2 91.7 29 12.9 55.2 0
12:27 1021 30.15 851 25.13 33.1 91.7 28 12.8 55 0
12:28 1021 30.15 851 25.13 33.2 91.8 25 11 51.8 0
12:29 1021 30.15 851 25.13 33.3 91.9 30 13.7 56.7 0
12:30 1021 30.15 851 25.13 33.3 91.9 25 11 51.8 0
12:31 1021 30.15 851 25.13 33.4 92.1 26 11.9 53.5 0
12:32 1021 30.15 851 25.13 33.4 92.2 26 11.7 53 0
12:33 1021 30.15 851 25.13 33.4 92 27 12.4 54.3 0
12:34 1021 30.15 851 25.13 33.4 92.2 28 13 55.4 0
12:35 1021 30.15 851 25.13 33.5 92.3 25 11.2 52.1 0
12:36 1021 30.15 851 25.13 33.5 92.4 25 11.2 52.1 0
12:37 1021 30.15 851 25.13 33.6 92.5 26 11.7 53.1 0
12:38 1021 30.15 850 25.1 33.6 92.5 26 12.1 53.7 0
12:39 1021 30.15 850 25.1 33.7 92.6 24 10.8 51.4 0
12:40 1021 30.15 850 25.1 33.7 92.6 23 10.1 50.1 0
12:41 1021 30.15 850 25.1 33.7 92.7 25 11.4 52.6 0
12:42 1021 30.15 850 25.1 33.8 92.9 24 11.1 52 0
12:43 1021 30.15 850 25.1 34 93.2 25 11.4 52.5 0
12:44 1021 30.15 850 25.1 34 93.2 24 10.8 51.4 0
12:45 1021 30.15 850 25.1 33.9 93 25 11.7 53.1 0
12:46 1021 30.15 850 25.1 33.8 92.9 24 10.9 51.6 0
12:47 1021 30.15 850 25.1 33.8 92.9 28 13.2 55.8 0
12:48 1021 30.15 850 25.1 33.7 92.6 24 10.6 51.2 0
12:49 1021 30.15 850 25.1 33.5 92.4 23 10.1 50.2 0
12:50 1021 30.15 850 25.1 33.4 92.2 24 10.6 51.1 0
12:51 1021 30.15 850 25.1 33.4 92.1 26 11.4 52.6 0
12:52 1021 30.15 850 25.1 33.5 92.3 30 13.9 57.1 0
12:53 1021 30.15 850 25.1 33.5 92.3 27 12.2 54 0
12:54 1021 30.15 850 25.1 33.6 92.4 26 11.7 53.1 0
12:55 1021 30.15 850 25.1 33.5 92.3 29 13.4 56.2 0
12:56 1021 30.15 850 25.1 33.6 92.4 32 15 58.9 0
12:57 1021 30.15 850 25.1 33.7 92.6 28 13.1 55.6 0
12:58 1021 30.15 850 25.1 33.6 92.5 27 12.3 54.2 0
12:59 1021 30.15 850 25.1 33.6 92.6 28 12.8 55 0
13:00 1021 30.15 850 25.1 33.6 92.6 27 12.2 54 0
13:01 1021 30.15 850 25.1 33.6 92.5 24 10.7 51.3 0
13:02 1021 30.15 850 25.1 33.6 92.4 26 12 53.5 0
13:03 1021 30.15 850 25.1 33.6 92.5 25 11.4 52.5 0
13:04 1021 30.15 850 25.1 33.5 92.4 24 10.4 50.7 0
13:05 1021 30.15 850 25.1 33.5 92.4 24 10.7 51.2 0
13:06 1021 30.15 850 25.1 33.5 92.2 22 9.4 48.9 0
13:07 1021 30.15 850 25.1 33.5 92.2 25 11 51.9 0
13:08 1021 30.15 850 25.1 33.5 92.3 26 11.9 53.4 0
13:09 1021 30.15 850 25.1 33.6 92.4 26 11.6 52.9 0
13:10 1021 30.15 850 25.1 33.6 92.4 29 13.3 56 0
13:11 1021 30.15 850 25.1 33.7 92.6 23 10.1 50.2 0
13:12 1021 30.15 850 25.1 33.6 92.5 25 11.1 52.1 0
13:13 1021 30.15 850 25.1 33.6 92.5 26 12.1 53.7 0
13:14 1021 30.15 850 25.1 33.6 92.5 24 10.8 51.5 0
13:15 1021 30.15 850 25.1 33.6 92.5 24 10.6 51.1 0
13:16 1021 30.15 850 25.1 33.7 92.6 26 11.9 53.4 0
13:17 1021 30.15 850 25.1 33.6 92.6 22 9.6 49.2 0
13:18 1021 30.15 850 25.1 33.7 92.7 23 10.4 50.7 0
13:19 1021 30.15 850 25.1 33.8 92.8 25 11.5 52.8 0
13:20 1021 30.15 850 25.1 33.9 93 22 9.5 49.1 0
13:21 1021 30.15 850 25.1 33.8 92.8 22 9.4 48.9 0
13:22 1021 30.15 850 25.1 33.9 92.9 27 12.5 54.4 0
13:23 1021 30.15 850 25.1 34 93.1 23 10.6 51.1 0
13:24 1021 30.15 850 25.1 34 93.2 19 7.2 45 0
13:25 1021 30.15 850 25.1 34 93.2 23 10.5 50.9 0
13:26 1021 30.15 850 25.1 34 93.1 21 9.3 48.7 0
13:27 1021 30.15 850 25.1 34 93.2 20 8.1 46.6 0
13:28 1021 30.15 850 25.1 34 93.2 24 11 51.7 0
13:29 1021 30.15 850 25.1 34.1 93.4 25 11.7 53.1 0
13:30 1021 30.15 850 25.1 34.1 93.4 21 8.9 48 0
13:31 1021 30.15 850 25.1 34.1 93.4 21 9.1 48.4 0
13:32 1021 30.15 850 25.1 34.1 93.3 20 8.6 47.6 0
13:33 1021 30.15 850 25.1 34 93.1 25 11.5 52.7 0
13:34 1021 30.15 850 25.1 34.1 93.3 23 10.5 50.8 0
13:35 1021 30.15 850 25.1 34.1 93.5 25 11.6 52.9 0
13:36 1021 30.15 850 25.1 34.1 93.4 19 8 46.4 0
13:37 1021 30.15 850 25.1 34.2 93.5 20 8.5 47.3 0
13:38 1021 30.15 850 25.1 34.2 93.5 19 7.9 46.2 0
13:39 1021 30.15 850 25.1 34.3 93.7 21 9.1 48.4 0
13:40 1021 30.15 850 25.1 34.4 93.9 21 9.5 49 0
13:41 1021 30.15 850 25.1 34.4 93.9 19 7.8 46.1 0
13:42 1021 30.15 850 25.1 34.3 93.8 20 8.5 47.3 0
13:43 1021 30.15 850 25.1 34.3 93.8 20 8.7 47.7 0
13:44 1021 30.15 850 25.1 34.5 94.1 20 8.9 48.1 0
13:45 1021 30.15 850 25.1 34.6 94.3 21 9.6 49.2 0
13:46 1021 30.15 850 25.1 34.7 94.5 19 8.1 46.6 0
13:47 1021 30.15 850 25.1 34.7 94.4 21 9.3 48.7 0
13:48 1021 30.15 850 25.1 34.7 94.5 20 9.2 48.5 0
13:49 1021 30.15 850 25.1 34.8 94.6 20 8.9 48.1 0
13:50 1021 30.15 850 25.1 34.8 94.7 21 9.9 49.9 0
13:51 1021 30.15 850 25.1 34.9 94.8 19 8.4 47.1 0
13:52 1021 30.15 850 25.1 34.9 94.7 21 10 49.9 0
13:53 1020 30.12 850 25.1 34.7 94.4 19 8 46.3 0
13:54 1020 30.12 850 25.1 34.6 94.2 21 9.2 48.6 0
13:55 1020 30.12 850 25.1 34.5 94.1 19 8.3 46.9 0
13:56 1020 30.12 850 25.1 34.5 94.2 17 6.5 43.7 0
13:57 1020 30.12 850 25.1 34.6 94.3 19 8.3 47 0
13:58 1020 30.12 850 25.1 34.7 94.5 17 6.9 44.4 0
13:59 1020 30.12 850 25.1 34.7 94.5 19 8.4 47.1 0
14:00 1020 30.12 850 25.1 34.8 94.7 21 9.9 49.8 0
14:01 1020 30.12 849 25.07 34.9 94.7 18 7.3 45.1 0
14:02 1020 30.12 849 25.07 34.9 94.7 21 10 50 0
14:03 1020 30.12 849 25.07 34.9 94.8 18 7.3 45.1 0
14:04 1020 30.12 849 25.07 34.9 94.7 17 6.3 43.4 0
14:05 1020 30.12 850 25.1 34.9 94.7 14 3.6 38.5 0
14:06 1020 30.12 850 25.1 34.9 94.8 12 2.3 36.1 0
14:07 1020 30.12 849 25.07 34.9 94.8 14 4.1 39.4 0
14:08 1020 30.12 849 25.07 34.6 94.4 15 4.9 40.8 0
14:09 1020 30.12 849 25.07 34.3 93.8 14 3.8 38.9 0
14:10 1020 30.12 849 25.07 34 93.2 17 5.7 42.3 0
14:11 1020 30.12 849 25.07 33.6 92.6 18 6.6 43.8 0
14:12 1020 30.12 849 25.07 33.3 91.9 16 4.6 40.3 0
14:13 1020 30.12 849 25.07 33 91.5 14 2.1 35.7 0
14:14 1020 30.12 849 25.07 33 91.4 17 4.7 40.5 0
14:15 1020 30.12 849 25.07 33 91.3 20 7.7 45.8 0
14:16 1020 30.12 849 25.07 32.8 91 19 6.4 43.5 0
14:17 1020 30.12 849 25.07 32.5 90.5 18 5.5 41.9 0
14:18 1020 30.12 849 25.07 32.4 90.3 16 3.4 38.1 0
14:19 1020 30.12 849 25.07 32.5 90.5 18 5.3 41.5 0
14:20 1020 30.12 849 25.07 32.6 90.6 16 3.6 38.6 0
14:21 1020 30.12 849 25.07 32.5 90.5 17 4.6 40.2 0
14:22 1020 30.12 849 25.07 32.4 90.4 16 3.8 38.8 0
14:23 1020 30.12 849 25.07 32.4 90.2 16 4.1 39.3 0
14:24 1020 30.12 849 25.07 32.3 90.2 17 4.9 40.9 0
14:25 1020 30.12 849 25.07 32.3 90.2 17 4.8 40.7 0
14:26 1020 30.12 849 25.07 32.3 90.2 18 5.5 41.8 0
14:27 1020 30.12 849 25.07 32.3 90.2 17 4.6 40.3 0
14:28 1020 30.12 849 25.07 32.4 90.4 15 3.1 37.5 0
14:29 1020 30.12 849 25.07 32.6 90.6 14 2.1 35.7 0
14:30 1020 30.12 849 25.07 32.8 91.1 14 2.2 35.9 0
14:31 1020 30.12 849 25.07 33 91.4 13 1.9 35.3 0
14:32 1020 30.12 849 25.07 33.1 91.7 18 6 42.8 0
14:33 1020 30.12 849 25.07 33.3 91.9 22 8.8 47.9 0
14:34 1020 30.12 849 25.07 33.3 92 16 4.5 40.1 0
14:35 1020 30.12 849 25.07 33.6 92.4 14 3 37.3 0
14:36 1020 30.12 849 25.07 33.9 93 13 2 35.5 0
14:37 1020 30.12 849 25.07 34.2 93.6 13 1.9 35.3 0
14:38 1020 30.12 849 25.07 34.5 94 12 1.9 35.5 0
14:39 1020 30.12 849 25.07 34.7 94.4 16 5.9 42.6 0
14:40 1020 30.12 849 25.07 34.8 94.7 14 4.2 39.6 0
14:41 1020 30.12 849 25.07 34.9 94.9 15 5.3 41.5 0
14:42 1020 30.12 849 25.07 35 95.1 15 4.7 40.5 0
14:43 1020 30.12 849 25.07 35.1 95.3 13 2.9 37.3 0
14:44 1020 30.12 849 25.07 35.2 95.3 15 5.3 41.5 0
14:45 1020 30.12 849 25.07 35.2 95.4 14 4.6 40.2 0
14:46 1020 30.12 849 25.07 35.4 95.7 17 7.1 44.7 0
14:47 1020 30.12 849 25.07 35.5 95.9 13 3.5 38.4 0
14:48 1020 30.12 849 25.07 35.5 95.8 13 3.7 38.7 0
14:49 1020 30.12 849 25.07 35.5 95.9 14 4.2 39.6 0
14:50 1020 30.12 849 25.07 35.5 95.8 15 5.7 42.3 0
14:51 1020 30.12 849 25.07 35.5 95.8 13 3.5 38.2 0
14:52 1020 30.12 849 25.07 35.5 95.9 16 6.6 43.8 0
14:53 1020 30.12 849 25.07 35.5 96 14 4.6 40.2 0
14:54 1020 30.12 849 25.07 35.6 96.1 16 6.1 43 0
14:55 1020 30.12 849 25.07 35.8 96.4 19 8.9 48 0
14:56 1020 30.12 849 25.07 35.8 96.4 14 4.8 40.6 0
14:57 1020 30.12 849 25.07 35.7 96.3 14 4.4 39.9 0
14:58 1020 30.12 849 25.07 35.5 96 13 3.6 38.4 0
14:59 1020 30.12 849 25.07 35.4 95.7 15 5.4 41.8 0
15:00 1020 30.12 849 25.07 35.2 95.4 18 7.5 45.5 0
15:01 1020 30.12 849 25.07 35.1 95.2 14 4.5 40.1 0
15:02 1020 30.12 849 25.07 34.9 94.9 14 4.2 39.5 0
15:03 1020 30.12 849 25.07 34.8 94.7 20 8.9 48.1 0
15:04 1020 30.12 849 25.07 34.9 94.7 18 7.6 45.7 0
15:05 1020 30.12 849 25.07 34.9 94.8 18 7.7 45.8 0
15:06 1020 30.12 849 25.07 35 94.9 13 3 37.4 0
15:07 1020 30.12 849 25.07 34.9 94.9 20 9.3 48.7 0
15:08 1020 30.12 849 25.07 35 95.1 19 8.5 47.3 0
15:09 1020 30.12 849 25.07 35.1 95.1 17 6.9 44.4 0
15:10 1020 30.12 849 25.07 35.1 95.1 14 3.7 38.6 0
15:11 1020 30.12 849 25.07 35 95 14 4.4 39.9 0
15:12 1020 30.12 849 25.07 34.9 94.9 13 3 37.5 0
15:13 1020 30.12 849 25.07 34.9 94.8 14 3.7 38.6 0
15:14 1020 30.12 849 25.07 34.9 94.9 20 9.3 48.7 0
15:15 1020 30.12 849 25.07 34.9 94.8 13 3.1 37.6 0
15:16 1020 30.12 849 25.07 34.8 94.6 20 9.2 48.5 0
15:17 1020 30.12 849 25.07 34.8 94.7 23 11.2 52.1 0
15:18 1020 30.12 849 25.07 35 94.9 16 6 42.8 0
15:19 1020 30.12 849 25.07 34.9 94.9 15 4.7 40.5 0
15:20 1020 30.12 849 25.07 34.9 94.8 18 7.4 45.4 0
15:21 1020 30.12 849 25.07 34.9 94.8 21 9.8 49.7 0
15:22 1020 30.12 849 25.07 34.9 94.8 17 6.3 43.3 0
15:23 1019 30.09 849 25.07 34.9 94.9 19 8.4 47.1 0
15:24 1019 30.09 849 25.07 34.9 94.7 15 5.2 41.3 0
15:25 1019 30.09 849 25.07 34.8 94.6 17 6.2 43.2 0
15:26 1019 30.09 849 25.07 34.7 94.5 20 8.7 47.6 0
15:27 1019 30.09 849 25.07 34.7 94.5 18 7.4 45.4 0
15:28 1020 30.12 849 25.07 34.8 94.6 21 9.6 49.3 0
15:29 1019 30.09 849 25.07 34.8 94.7 18 7.4 45.3 0
15:30 1019 30.09 849 25.07 34.8 94.7 17 6.8 44.3 0
15:31 1019 30.09 849 25.07 34.8 94.7 16 6.2 43.1 0
15:32 1019 30.09 849 25.07 34.9 94.8 14 4.1 39.3 0
15:33 1019 30.09 849 25.07 34.9 94.8 18 7.3 45.2 0
15:34 1019 30.09 849 25.07 35 94.9 17 6.6 43.8 0
15:35 1019 30.09 849 25.07 35 95 16 6.1 43 0
15:36 1019 30.09 849 25.07 35.1 95.1 13 3.4 38.1 0
15:37 1019 30.09 849 25.07 35 95 13 3.3 37.9 0
15:38 1019 30.09 849 25.07 35 95 14 3.9 39 0
15:39 1019 30.09 849 25.07 35 94.9 17 6.8 44.2 0
15:40 1019 30.09 849 25.07 34.9 94.8 21 9.9 49.8 0
15:41 1019 30.09 849 25.07 34.8 94.6 21 9.5 49.1 0
15:42 1019 30.09 849 25.07 34.7 94.4 19 8.2 46.7 0
15:43 1019 30.09 849 25.07 34.7 94.4 17 6.2 43.1 0
15:44 1019 30.09 849 25.07 34.7 94.4 15 4.5 40 0
15:45 1019 30.09 848 25.04 34.6 94.3 17 6.8 44.2 0
15:46 1019 30.09 848 25.04 34.3 93.8 17 6 42.9 0
15:47 1019 30.09 848 25.04 34 93.1 19 7.2 44.9 0
15:48 1019 30.09 848 25.04 33.6 92.4 15 3.5 38.3 0
15:49 1019 30.09 848 25.04 33.4 92.1 17 5.3 41.5 0
15:50 1019 30.09 848 25.04 33.2 91.7 19 6.9 44.5 0
15:51 1019 30.09 848 25.04 32.9 91.2 19 6.8 44.3 0
15:52 1019 30.09 848 25.04 32.6 90.7 19 6.8 44.2 0
15:53 1019 30.09 848 25.04 32.4 90.3 22 8.3 46.9 0
15:54 1019 30.09 848 25.04 32.2 89.9 19 5.9 42.7 0
15:55 1019 30.09 848 25.04 32.1 89.7 22 8 46.3 0
15:56 1019 30.09 848 25.04 32.1 89.8 19 5.7 42.2 0
15:57 1019 30.09 848 25.04 32.2 89.9 21 7.7 45.9 0
15:58 1019 30.09 848 25.04 32.1 89.7 16 3.8 38.9 0
15:59 1019 30.09 848 25.04 32.2 90 17 4.3 39.8 0
16:00 1019 30.09 848 25.04 32.5 90.4 21 7.8 46 0
16:01 1019 30.09 848 25.04 32.5 90.5 24 9.8 49.6 0
16:02 1019 30.09 848 25.04 32.5 90.4 26 10.9 51.7 0
16:03 1019 30.09 848 25.04 32.7 90.8 28 12.2 53.9 0
16:04 1019 30.09 848 25.04 33 91.3 25 10.8 51.4 0
16:05 1019 30.09 848 25.04 33.3 91.9 22 9.3 48.7 0
16:06 1019 30.09 848 25.04 33.6 92.5 21 8.4 47.1 0
16:07 1019 30.09 848 25.04 34 93.3 16 5.6 42 0
16:08 1019 30.09 848 25.04 34.4 93.8 17 6.4 43.6 0
16:09 1019 30.09 848 25.04 34.5 94.2 20 8.8 47.8 0
16:10 1019 30.09 848 25.04 34.7 94.4 20 8.8 47.8 0
16:11 1019 30.09 848 25.04 34.7 94.5 20 8.6 47.5 0
16:12 1019 30.09 848 25.04 34.7 94.4 17 6.2 43.2 0
16:13 1019 30.09 848 25.04 34.7 94.4 22 10.3 50.6 0
16:14 1019 30.09 848 25.04 34.8 94.6 15 4.5 40.2 0
16:15 1019 30.09 848 25.04 34.8 94.7 16 6 42.8 0
16:16 1019 30.09 848 25.04 34.9 94.7 18 7.8 46.1 0
16:17 1019 30.09 848 25.04 34.9 94.8 17 6.3 43.4 0
16:18 1019 30.09 848 25.04 34.9 94.9 16 5.6 42 0
16:19 1019 30.09 848 25.04 34.9 94.8 21 9.8 49.6 0
16:20 1019 30.09 848 25.04 34.8 94.6 15 4.9 40.8 0
16:21 1019 30.09 848 25.04 34.7 94.5 19 7.9 46.2 0
16:22 1019 30.09 848 25.04 34.7 94.4 19 8.4 47.1 0
16:23 1019 30.09 848 25.04 34.7 94.5 18 7.5 45.5 0
16:24 1019 30.09 848 25.04 34.7 94.5 19 8.5 47.2 0
16:25 1019 30.09 848 25.04 34.6 94.4 20 9.2 48.5 0
16:26 1019 30.09 848 25.04 34.7 94.5 18 7.7 45.9 0
16:27 1019 30.09 848 25.04 34.8 94.6 19 8.5 47.3 0
16:28 1019 30.09 848 25.04 34.9 94.7 16 5.7 42.2 0
16:29 1019 30.09 848 25.04 34.9 94.9 15 4.9 40.9 0
16:30 1019 30.09 848 25.04 35 95 14 3.8 38.8 0
16:31 1019 30.09 848 25.04 35 95 16 6.1 42.9 0
16:32 1019 30.09 848 25.04 35 95 14 3.7 38.7 0
16:33 1019 30.09 848 25.04 35 95 18 7.4 45.3 0
16:34 1019 30.09 848 25.04 35.1 95.2 14 4.4 39.9 0
16:35 1019 30.09 848 25.04 35.2 95.3 16 5.7 42.2 0
16:36 1019 30.09 848 25.04 35.3 95.5 19 8.4 47.2 0
16:37 1019 30.09 848 25.04 35.2 95.3 21 10.2 50.4 0
16:38 1019 30.09 848 25.04 35.1 95.1 17 6.6 44 0
16:39 1019 30.09 848 25.04 35 95 17 7.1 44.8 0
16:40 1018 30.06 848 25.04 35 95 18 7.6 45.8 0
16:41 1018 30.06 848 25.04 35 95 22 10.3 50.5 0
16:42 1018 30.06 848 25.04 35 95 14 4.1 39.4 0
16:43 1018 30.06 848 25.04 35.1 95.1 15 4.8 40.6 0
16:44 1018 30.06 848 25.04 35.1 95.1 19 8.4 47 0
16:45 1018 30.06 848 25.04 35 95 14 3.9 39 0
16:46 1018 30.06 848 25.04 35 94.9 15 4.8 40.6 0
16:47 1018 30.06 848 25.04 35 95 18 7.3 45.1 0
16:48 1018 30.06 848 25.04 35 95 15 5.3 41.5 0
16:49 1018 30.06 848 25.04 35 95 18 7.3 45.1 0
16:50 1018 30.06 848 25.04 35.1 95.2 18 7.9 46.2 0
16:51 1018 30.06 848 25.04 35.1 95.2 22 10.6 51.1 0
16:52 1018 30.06 848 25.04 35.1 95.1 22 10.8 51.4 0
16:53 1018 30.06 848 25.04 35.1 95.1 21 9.7 49.4 0
16:54 1018 30.06 848 25.04 35.1 95.2 20 9.6 49.2 0
16:55 1018 30.06 847 25.01 35.1 95.1 22 10.3 50.6 0
16:56 1018 30.06 847 25.01 35 94.9 21 9.5 49.1 0
16:57 1018 30.06 847 25.01 34.8 94.6 20 8.9 48.1 0
16:58 1018 30.06 847 25.01 34.5 94 20 8.7 47.7 0
16:59 1018 30.06 847 25.01 34 93.2 17 5.6 42.1 0
17:00 1018 30.06 847 25.01 33.8 92.9 22 9.8 49.6 0
17:01 1018 30.06 847 25.01 33.5 92.2 23 10 50 0
17:02 1018 30.06 847 25.01 33 91.4 21 8.5 47.3 0
17:03 1018 30.06 847 25.01 32.7 90.9 28 12 53.7 0
17:04 1018 30.06 847 25.01 32.6 90.6 28 12.1 53.9 0
17:05 1018 30.06 847 25.01 32.7 90.8 24 10 50 0
17:06 1018 30.06 847 25.01 33.1 91.6 23 9.8 49.6 0
17:07 1018 30.06 847 25.01 33.5 92.3 23 10.2 50.4 0
17:08 1018 30.06 847 25.01 33.8 92.9 25 11.5 52.7 0
17:09 1018 30.06 847 25.01 34.1 93.3 20 8.5 47.4 0
17:10 1018 30.06 847 25.01 34.3 93.7 19 8 46.4 0
17:11 1018 30.06 847 25.01 34.4 93.9 23 10.5 50.9 0
17:12 1018 30.06 847 25.01 34.5 94.1 20 9.1 48.4 0
17:13 1018 30.06 847 25.01 34.6 94.3 18 7.5 45.4 0
17:14 1018 30.06 847 25.01 34.5 94.1 19 7.7 45.8 0
17:15 1018 30.06 847 25.01 34.3 93.8 17 5.9 42.6 0
17:16 1018 30.06 847 25.01 34.1 93.5 21 9.4 48.8 0
17:17 1018 30.06 847 25.01 33.9 93 19 7.1 44.8 0
17:18 1018 30.06 847 25.01 33.5 92.4 24 10.6 51 0
17:19 1018 30.06 847 25.01 33.2 91.7 24 10.3 50.5 0
17:20 1018 30.06 847 25.01 32.9 91.1 27 11.7 53 0
17:21 1018 30.06 847 25.01 32.6 90.6 27 11.7 53 0
17:22 1018 30.06 847 25.01 32.3 90.2 29 12.3 54.2 0
17:23 1018 30.06 847 25.01 32.2 90 25 10.4 50.7 0
17:24 1018 30.06 847 25.01 32.3 90.1 28 11.9 53.5 0
17:25 1018 30.06 847 25.01 32.3 90.1 28 11.9 53.4 0
17:26 1018 30.06 847 25.01 32.2 89.9 30 12.8 55 0
17:27 1018 30.06 847 25.01 32 89.6 31 13.1 55.6 0
17:28 1018 30.06 847 25.01 31.9 89.3 31 13.2 55.8 0
17:29 1018 30.06 847 25.01 31.7 89 32 13.5 56.3 0
17:30 1018 30.06 847 25.01 31.5 88.7 32 13.3 56 0
17:31 1018 30.06 847 25.01 31.3 88.4 31 12.6 54.7 0
17:32 1018 30.06 847 25.01 31.2 88.1 33 13.4 56.1 0
17:33 1018 30.06 847 25.01 31.2 88.2 33 13.4 56.1 0
17:34 1018 30.06 847 25.01 31.4 88.6 28 11.3 52.4 0
17:35 1018 30.06 847 25.01 31.7 89 29 11.8 53.2 0
17:36 1018 30.06 847 25.01 31.9 89.3 31 12.8 55 0
17:37 1018 30.06 847 25.01 31.9 89.5 31 13.3 55.9 0
17:38 1018 30.06 847 25.01 32 89.6 32 13.4 56.1 0
17:39 1018 30.06 847 25.01 32.2 90 30 12.9 55.2 0
17:40 1018 30.06 847 25.01 32.5 90.4 27 11.5 52.7 0
17:41 1018 30.06 847 25.01 32.7 90.9 29 12.7 54.8 0
17:42 1018 30.06 847 25.01 33 91.3 26 11.3 52.4 0
17:43 1018 30.06 847 25.01 33.2 91.8 24 10.5 50.9 0
17:44 1018 30.06 847 25.01 33.4 92.1 26 11.7 53.1 0
17:45 1018 30.06 847 25.01 33.6 92.5 28 12.7 54.9 0
17:46 1018 30.06 847 25.01 33.8 92.8 30 14.1 57.3 0
17:47 1018 30.06 847 25.01 33.9 93.1 21 8.8 47.8 0
17:48 1018 30.06 847 25.01 34.1 93.4 26 12.2 54 0
17:49 1018 30.06 847 25.01 34.2 93.6 20 8.7 47.6 0
17:50 1018 30.06 847 25.01 34.4 93.8 18 7.3 45.1 0
17:51 1018 30.06 847 25.01 34.5 94 20 8.8 47.9 0
17:52 1018 30.06 847 25.01 34.5 94.1 24 11.2 52.1 0
17:53 1018 30.06 847 25.01 34.6 94.2 19 8.2 46.8 0
17:54 1018 30.06 847 25.01 34.6 94.3 21 9.3 48.7 0
17:55 1018 30.06 847 25.01 34.7 94.4 20 8.8 47.9 0
17:56 1018 30.06 847 25.01 34.7 94.5 18 7.4 45.2 0
17:57 1018 30.06 847 25.01 34.7 94.4 21 9.5 49.2 0
17:58 1018 30.06 847 25.01 34.5 94.1 23 10.8 51.5 0
17:59 1018 30.06 847 25.01 34.3 93.8 21 9.5 49.2 0
18:00 1018 30.06 847 25.01 34.1 93.3 22 9.5 49.1 0
18:01 1018 30.06 847 25.01 33.8 92.8 26 11.8 53.3 0
18:02 1018 30.06 847 25.01 33.6 92.5 24 10.5 50.8 0
18:03 1018 30.06 847 25.01 33.5 92.3 20 7.8 46.1 0
18:04 1018 30.06 847 25.01 33.6 92.4 19 7.3 45.2 0
18:05 1018 30.06 847 25.01 33.5 92.4 24 10.6 51.1 0
18:06 1017 30.03 847 25.01 33.5 92.2 22 9.1 48.3 0
18:07 1017 30.03 847 25.01 33.5 92.2 20 7.6 45.7 0
18:08 1017 30.03 847 25.01 33.5 92.3 20 8.1 46.7 0
18:09 1017 30.03 847 25.01 33.5 92.3 24 10.6 51 0
18:10 1017 30.03 847 25.01 33.5 92.2 20 8.2 46.8 0
18:11 1017 30.03 847 25.01 33.5 92.3 21 8.5 47.3 0
18:12 1017 30.03 846 24.98 33.5 92.3 17 5.6 42.2 0
18:13 1017 30.03 846 24.98 33.6 92.5 22 9.2 48.6 0
18:14 1017 30.03 846 24.98 33.6 92.5 25 11 51.8 0
18:15 1017 30.03 846 24.98 33.6 92.4 25 11.3 52.3 0
18:16 1017 30.03 846 24.98 33.6 92.5 23 9.8 49.6 0
18:17 1017 30.03 846 24.98 33.7 92.6 22 9.4 48.9 0
18:18 1017 30.03 846 24.98 33.7 92.7 23 10.3 50.5 0
18:19 1017 30.03 846 24.98 33.8 92.8 24 10.9 51.6 0
18:20 1017 30.03 846 24.98 33.8 92.8 23 10 50 0
18:21 1017 30.03 846 24.98 33.7 92.7 23 10.1 50.2 0
18:22 1017 30.03 846 24.98 33.7 92.6 24 10.6 51.1 0
18:23 1017 30.03 846 24.98 33.6 92.4 24 10.8 51.4 0
18:24 1017 30.03 846 24.98 33.3 91.9 26 11.3 52.4 0
18:25 1017 30.03 846 24.98 33 91.4 26 11.4 52.6 0
18:26 1017 30.03 846 24.98 32.6 90.7 28 12 53.7 0
18:27 1017 30.03 846 24.98 32.2 89.9 26 10.6 51 0
18:28 1017 30.03 846 24.98 31.7 89.1 28 11.1 52 0
18:29 1017 30.03 846 24.98 31.3 88.4 30 11.8 53.2 0
18:30 1017 30.03 846 24.98 30.9 87.6 29 11.2 52.2 0
18:31 1017 30.03 846 24.98 30.6 87.2 31 12.1 53.7 0
18:32 1017 30.03 846 24.98 30.4 86.8 32 12.4 54.3 0
18:33 1017 30.03 846 24.98 30.4 86.7 33 12.7 54.9 0
18:34 1017 30.03 846 24.98 30.4 86.8 29 10.5 50.9 0
18:35 1017 30.03 846 24.98 30.4 86.7 31 11.6 52.8 0
18:36 1017 30.03 846 24.98 30.2 86.3 31 11.5 52.7 0
18:37 1017 30.03 846 24.98 30 86 31 11.4 52.5 0
18:38 1017 30.03 846 24.98 29.9 85.8 31 11.4 52.5 0
18:39 1017 30.03 846 24.98 29.8 85.6 32 11.6 52.9 0
18:40 1017 30.03 846 24.98 29.7 85.4 32 11.4 52.4 0
18:41 1017 30.03 846 24.98 29.6 85.3 32 11.5 52.8 0
18:42 1017 30.03 846 24.98 29.7 85.4 32 11.7 53.1 0
18:43 1017 30.03 846 24.98 29.5 85.2 35 12.8 55 0
18:44 1017 30.03 846 24.98 29.3 84.7 35 12.7 54.9 0
18:45 1017 30.03 846 24.98 29.1 84.3 36 12.6 54.7 0
18:46 1017 30.03 846 24.98 28.8 83.8 38 13.5 56.3 0
18:47 1017 30.03 846 24.98 28.5 83.2 39 13.3 55.9 0
18:48 1017 30.03 846 24.98 28.2 82.7 40 13.4 56.1 0
18:49 1017 30.03 846 24.98 27.9 82.2 39 13.1 55.5 0
18:50 1017 30.03 846 24.98 27.7 81.8 38 12.5 54.5 0
18:51 1017 30.03 846 24.98 27.3 81.2 38 12.1 53.8 0
18:52 1017 30.03 846 24.98 27.1 80.7 40 12.5 54.4 0
18:53 1017 30.03 846 24.98 26.8 80.3 39 12.1 53.8 0
18:54 1017 30.03 846 24.98 26.7 80 38 11.5 52.7 0
18:55 1017 30.03 846 24.98 26.6 79.8 39 11.8 53.2 0
18:56 1017 30.03 846 24.98 26.4 79.5 36 10.5 51 0
18:57 1017 30.03 846 24.98 26.3 79.3 37 10.7 51.3 0
18:58 1017 30.03 846 24.98 26.2 79.2 35 9.7 49.5 0
18:59 1017 30.03 846 24.98 26.2 79.1 34 9.2 48.6 0
19:00 1017 30.03 846 24.98 26.2 79.1 33 8.7 47.6 0
19:01 1017 30.03 846 24.98 26.3 79.4 30 7.7 45.9 0
19:02 1017 30.03 846 24.98 26.6 79.8 34 9.5 49.1 0
19:03 1017 30.03 846 24.98 26.4 79.6 33 9.2 48.5 0
19:04 1017 30.03 846 24.98 26.4 79.4 27 6.4 43.5 0
19:05 1017 30.03 846 24.98 27 80.6 27 6.9 44.4 0
19:06 1017 30.03 846 24.98 27.5 81.5 29 7.9 46.3 0
19:07 1017 30.03 846 24.98 27.5 81.4 32 9.4 49 0
19:08 1016 30 846 24.98 26.1 78.9 41 11.9 53.5 0
19:09 1016 30 845 24.95 23.1 73.5 52 12.9 55.3 0
19:10 1016 30 845 24.95 20.6 69.1 58 12.2 54 0
19:11 1017 30.03 846 24.98 19.1 66.4 58 10.8 51.5 0
19:12 1017 30.03 846 24.98 18.7 65.6 60 10.8 51.4 0
19:13 1017 30.03 847 25.01 18.6 65.5 59 10.6 51 0
19:14 1018 30.06 847 25.01 20.2 68.3 40 6.3 43.3 0
19:15 1018 30.06 847 25.01 22.5 72.5 54 12.9 55.3 0
19:16 1017 30.03 847 25.01 21.5 70.8 49 10.6 51 0
19:17 1017 30.03 847 25.01 21.5 70.8 44 9 48.1 0
19:18 1017 30.03 847 25.01 22.5 72.6 37 7.1 44.8 0
19:19 1017 30.03 846 24.98 23.5 74.3 31 5.6 42 0
19:20 1017 30.03 846 24.98 25.1 77.2 30 6.8 44.2 0
19:21 1017 30.03 847 25.01 25.8 78.4 37 10.1 50.2 0
19:22 1017 30.03 847 25.01 25.3 77.6 32 7.9 46.2 0
19:23 1017 30.03 847 25.01 25.2 77.4 40 10.9 51.6 0
19:24 1017 30.03 847 25.01 24.7 76.5 36 9 48.3 0
19:25 1017 30.03 847 25.01 25.3 77.6 30 6.9 44.3 0
19:26 1018 30.06 847 25.01 26.1 79 32 8.2 46.7 0
19:27 1018 30.06 847 25.01 25.8 78.4 37 10.2 50.4 0
19:28 1017 30.03 847 25.01 25.2 77.3 37 9.7 49.5 0
19:29 1018 30.06 847 25.01 24.9 76.8 39 10.4 50.7 0
19:30 1018 30.06 847 25.01 24.6 76.2 41 10.8 51.5 0
19:31 1017 30.03 847 25.01 23.9 75.1 47 12.1 53.7 0
19:32 1017 30.03 847 25.01 23.4 74 46 11.3 52.3 0
19:33 1017 30.03 847 25.01 23.1 73.6 48 11.6 52.9 0
19:34 1018 30.06 847 25.01 22.8 73.1 50 12 53.6 0
19:35 1018 30.06 847 25.01 22.6 72.6 50 11.8 53.2 0
19:36 1018 30.06 847 25.01 22.4 72.4 52 12.3 54.1 0
19:37 1018 30.06 847 25.01 22.3 72.1 46 10.4 50.7 0
19:38 1018 30.06 847 25.01 22.8 73 45 10.3 50.5 0
19:39 1018 30.06 847 25.01 23.3 73.9 39 8.7 47.7 0
19:40 1018 30.06 847 25.01 24 75.2 31 6 42.9 0
19:41 1018 30.06 848 25.04 25.3 77.6 32 7.9 46.3 0
19:42 1018 30.06 848 25.04 25.8 78.5 33 8.4 47.2 0
19:43 1018 30.06 848 25.04 25.9 78.5 35 9.3 48.8 0
19:44 1018 30.06 847 25.01 25.6 78.1 36 9.5 49.2 0
19:45 1018 30.06 848 25.04 25.5 77.9 35 9.1 48.3 0
19:46 1018 30.06 848 25.04 25.4 77.6 36 9.6 49.2 0
19:47 1018 30.06 848 25.04 25.2 77.3 38 10 50 0
19:48 1018 30.06 848 25.04 25 76.9 36 9.2 48.6 0
19:49 1018 30.06 847 25.01 24.9 76.8 40 10.4 50.8 0
19:50 1018 30.06 847 25.01 24.6 76.3 33 7.4 45.3 0
19:51 1018 30.06 848 25.04 25 76.9 36 9 48.2 0
19:52 1018 30.06 848 25.04 24.9 76.9 38 10 50.1 0
19:53 1018 30.06 848 25.04 24.8 76.6 38 9.8 49.7 0
19:54 1018 30.06 847 25.01 24.6 76.3 36 8.8 47.8 0
19:55 1018 30.06 847 25.01 24.6 76.3 36 8.9 48.1 0
19:56 1018 30.06 847 25.01 24.7 76.4 36 8.8 47.8 0
19:57 1018 30.06 847 25.01 24.7 76.5 38 9.7 49.4 0
19:58 1018 30.06 847 25.01 24.7 76.5 37 9.1 48.4 0
19:59 1018 30.06 847 25.01 24.7 76.5 39 10 49.9 0
20:00 1018 30.06 847 25.01 24.6 76.2 41 10.6 51.1 0
20:01 1018 30.06 847 25.01 24.3 75.7 40 10.2 50.4 0
20:02 1018 30.06 847 25.01 24.3 75.7 38 9.3 48.7 0
20:03 1018 30.06 847 25.01 24.4 75.9 37 9.1 48.5 0
20:04 1018 30.06 847 25.01 24.5 76.2 39 9.8 49.6 0
20:05 1018 30.06 847 25.01 24.5 76 41 10.6 51.1 0
20:06 1018 30.06 847 25.01 24.3 75.7 38 9.5 49.1 0
20:07 1018 30.06 848 25.04 24.4 75.9 40 10.2 50.4 0
20:08 1018 30.06 848 25.04 24.5 76 36 8.6 47.5 0
20:09 1018 30.06 848 25.04 24.9 76.7 34 8.1 46.6 0
20:10 1019 30.09 848 25.04 25.3 77.6 31 7.4 45.4 0
20:11 1019 30.09 848 25.04 25.6 78.1 36 9.8 49.7 0
20:12 1019 30.09 848 25.04 25 77.1 40 10.6 51.2 0
20:13 1018 30.06 848 25.04 24.2 75.6 46 11.9 53.5 0
20:14 1019 30.09 848 25.04 23.7 74.6 43 10.6 51 0
20:15 1019 30.09 848 25.04 23.6 74.4 45 11.3 52.3 0
20:16 1019 30.09 848 25.04 23.4 74.1 48 11.9 53.4 0
20:17 1019 30.09 848 25.04 23.3 73.9 44 10.4 50.7 0
20:18 1019 30.09 848 25.04 23.6 74.6 40 9.4 49 0
20:19 1019 30.09 848 25.04 23.9 75 38 9.1 48.3 0
20:20 1019 30.09 848 25.04 24 75.1 43 10.8 51.5 0
20:21 1019 30.09 848 25.04 23.8 74.9 45 11.4 52.6 0
20:22 1019 30.09 848 25.04 23.4 74.1 49 12.1 53.8 0
20:23 1019 30.09 848 25.04 22.8 73.1 51 12.4 54.4 0
20:24 1019 30.09 848 25.04 22.2 71.9 56 13.2 55.7 0
20:25 1019 30.09 848 25.04 21.7 71 52 11.6 52.9 0
20:26 1019 30.09 848 25.04 21.8 71.3 47 10.3 50.6 0
20:27 1019 30.09 848 25.04 22.3 72.1 47 10.6 51.2 0
20:28 1019 30.09 848 25.04 22.5 72.5 47 10.7 51.3 0
20:29 1019 30.09 848 25.04 22.4 72.4 56 13.3 56 0
20:30 1019 30.09 848 25.04 21.6 70.9 59 13.5 56.3 0
20:31 1019 30.09 848 25.04 21.1 69.9 58 12.5 54.6 0
20:32 1019 30.09 848 25.04 21 69.8 54 11.4 52.6 0
20:33 1019 30.09 848 25.04 21.4 70.4 54 11.8 53.3 0
20:34 1019 30.09 848 25.04 21.7 71.1 49 10.6 51.1 0
20:35 1019 30.09 848 25.04 22 71.7 49 11 51.9 0
20:36 1019 30.09 848 25.04 22.4 72.3 49 11.3 52.3 0
20:37 1019 30.09 848 25.04 22.5 72.5 45 10.2 50.4 0
20:38 1019 30.09 848 25.04 22.8 73 45 10.4 50.7 0
20:39 1019 30.09 848 25.04 23 73.5 42 9.6 49.3 0
20:40 1019 30.09 848 25.04 23.3 74 42 10.1 50.1 0
20:41 1019 30.09 848 25.04 23.5 74.3 42 10.1 50.1 0
20:42 1019 30.09 848 25.04 23.4 74.2 45 11.1 52 0
20:43 1019 30.09 848 25.04 23.2 73.8 47 11.4 52.6 0
20:44 1019 30.09 848 25.04 22.9 73.3 46 11 51.7 0
20:45 1019 30.09 848 25.04 22.8 73 46 10.9 51.6 0
20:46 1019 30.09 848 25.04 22.8 73.1 45 10.3 50.5 0
20:47 1019 30.09 848 25.04 22.9 73.2 47 11.1 52.1 0
20:48 1019 30.09 848 25.04 22.9 73.2 46 10.8 51.5 0
20:49 1019 30.09 848 25.04 22.8 73.1 47 11 51.8 0
20:50 1019 30.09 848 25.04 22.7 72.9 48 11.4 52.5 0
20:51 1019 30.09 848 25.04 22.5 72.6 50 11.8 53.2 0
20:52 1019 30.09 848 25.04 22.3 72.2 50 11.4 52.6 0
20:53 1019 30.09 848 25.04 22.2 72 50 11.5 52.6 0
20:54 1019 30.09 848 25.04 22.1 71.8 51 11.8 53.3 0
20:55 1019 30.09 848 25.04 22.1 71.7 50 11.3 52.3 0
20:56 1019 30.09 848 25.04 22 71.6 51 11.5 52.7 0
20:57 1019 30.09 848 25.04 22 71.5 52 12 53.5 0
20:58 1019 30.09 848 25.04 21.8 71.3 52 11.8 53.2 0
20:59 1019 30.09 848 25.04 21.7 71.1 51 11.3 52.3 0
21:00 1019 30.09 849 25.07 21.9 71.4 53 12 53.6 0
21:01 1019 30.09 849 25.07 21.8 71.3 54 12.2 54 0
21:02 1019 30.09 849 25.07 21.7 71 46 9.8 49.6 0
21:03 1019 30.09 849 25.07 21.9 71.3 53 12.1 53.7 0
21:04 1019 30.09 849 25.07 21.8 71.2 50 10.9 51.7 0
21:05 1020 30.12 849 25.07 22 71.6 46 10 50.1 0
21:06 1020 30.12 849 25.07 22.4 72.3 44 9.7 49.5 0
21:07 1020 30.12 849 25.07 22.7 72.9 46 10.6 51 0
21:08 1020 30.12 849 25.07 22.8 73.1 43 9.9 49.8 0
21:09 1020 30.12 849 25.07 22.9 73.3 44 10.2 50.4 0
21:10 1020 30.12 849 25.07 23 73.4 44 10.3 50.5 0
21:11 1020 30.12 849 25.07 23.1 73.5 44 10.2 50.4 0
21:12 1019 30.09 849 25.07 23.1 73.6 43 10.2 50.4 0
21:13 1019 30.09 849 25.07 23.2 73.8 44 10.4 50.8 0
21:14 1019 30.09 849 25.07 23.2 73.7 44 10.6 51 0
21:15 1019 30.09 849 25.07 23.1 73.7 40 9.1 48.4 0
21:16 1020 30.12 849 25.07 23.2 73.8 42 9.7 49.5 0
21:17 1019 30.09 849 25.07 23.3 74 41 9.4 48.9 0
21:18 1020 30.12 849 25.07 23.5 74.3 38 8.6 47.6 0
21:19 1020 30.12 849 25.07 23.8 74.8 38 8.9 48 0
21:20 1020 30.12 849 25.07 24.1 75.3 35 7.9 46.3 0
21:21 1020 30.12 849 25.07 24.4 75.9 36 8.6 47.6 0
21:22 1020 30.12 849 25.07 24.5 76.1 36 8.7 47.7 0
21:23 1020 30.12 849 25.07 24.4 76 35 8 46.5 0
21:24 1020 30.12 849 25.07 24.5 76.1 35 8.4 47.2 0
21:25 1020 30.12 849 25.07 24.6 76.3 31 6.8 44.3 0
21:26 1020 30.12 849 25.07 24.9 76.8 32 7.5 45.5 0
21:27 1020 30.12 849 25.07 25.2 77.4 31 6.9 44.4 0
21:28 1020 30.12 849 25.07 25.5 77.8 31 7.5 45.5 0
21:29 1020 30.12 849 25.07 25.4 77.8 31 7.2 45 0
21:30 1020 30.12 849 25.07 25.5 77.9 29 6.2 43.1 0
21:31 1020 30.12 849 25.07 25.7 78.3 30 7.2 44.9 0
21:32 1020 30.12 849 25.07 25.7 78.3 29 6.8 44.2 0
21:33 1020 30.12 849 25.07 25.8 78.4 29 6.8 44.3 0
21:34 1020 30.12 849 25.07 25.9 78.5 28 6.4 43.6 0
21:35 1020 30.12 849 25.07 26 78.8 28 6.5 43.7 0
21:36 1020 30.12 849 25.07 26.1 79 29 7 44.6 0
21:37 1020 30.12 849 25.07 26 78.8 32 8.3 46.9 0
21:38 1020 30.12 849 25.07 25.6 78 32 7.8 46 0
21:39 1020 30.12 849 25.07 25.5 77.8 33 8.3 46.9 0
21:40 1020 30.12 849 25.07 25.2 77.4 33 8.2 46.8 0
21:41 1020 30.12 849 25.07 25.1 77.2 29 6.2 43.1 0
21:42 1020 30.12 849 25.07 25.5 77.9 30 6.7 44.1 0
21:43 1020 30.12 849 25.07 25.6 78.2 32 8 46.4 0
21:44 1020 30.12 849 25.07 25.4 77.7 33 8 46.5 0
21:45 1020 30.12 849 25.07 25.2 77.3 31 6.9 44.5 0
21:46 1020 30.12 849 25.07 25.2 77.4 33 7.9 46.3 0
21:47 1020 30.12 849 25.07 25.2 77.4 32 7.5 45.5 0
21:48 1020 30.12 849 25.07 25.1 77.3 32 7.6 45.6 0
21:49 1020 30.12 849 25.07 25 76.9 31 7 44.6 0
21:50 1020 30.12 849 25.07 25.1 77.1 31 6.8 44.2 0
21:51 1020 30.12 849 25.07 25.2 77.3 31 6.9 44.4 0
21:52 1020 30.12 849 25.07 25.3 77.5 30 6.7 44 0
21:53 1020 30.12 849 25.07 25.3 77.5 31 7.1 44.8 0
21:54 1020 30.12 849 25.07 25.2 77.4 31 7.1 44.8 0
21:55 1020 30.12 849 25.07 25.2 77.3 33 7.8 46 0
21:56 1020 30.12 849 25.07 25.1 77.1 35 8.6 47.5 0
21:57 1020 30.12 849 25.07 24.7 76.5 35 8.6 47.5 0
21:58 1020 30.12 849 25.07 24.5 76.1 33 7.3 45.1 0
21:59 1020 30.12 849 25.07 24.7 76.5 33 7.4 45.3 0
22:00 1020 30.12 849 25.07 24.8 76.6 33 7.8 46 0
22:01 1020 30.12 849 25.07 24.7 76.4 35 8.2 46.8 0
22:02 1020 30.12 849 25.07 24.4 76 37 9.1 48.4 0
22:03 1020 30.12 849 25.07 24 75.3 39 9.4 49 0
22:04 1020 30.12 849 25.07 23.7 74.7 40 9.5 49.1 0
22:05 1020 30.12 849 25.07 23.3 74 42 9.9 49.9 0
22:06 1020 30.12 849 25.07 23 73.3 42 9.6 49.3 0
22:07 1020 30.12 849 25.07 22.8 73 44 10.2 50.3 0
22:08 1020 30.12 849 25.07 22.4 72.4 44 9.6 49.3 0
22:09 1020 30.12 849 25.07 22.3 72.2 41 8.7 47.7 0
22:10 1020 30.12 849 25.07 22.5 72.5 41 8.7 47.6 0
22:11 1020 30.12 849 25.07 22.7 72.8 42 9.4 48.9 0
22:12 1020 30.12 849 25.07 22.6 72.7 43 9.5 49.1 0
22:13 1020 30.12 849 25.07 22.4 72.3 42 9.2 48.6 0
22:14 1020 30.12 849 25.07 22.4 72.3 42 9 48.2 0
22:15 1020 30.12 849 25.07 22.5 72.4 43 9.3 48.7 0
22:16 1020 30.12 849 25.07 22.4 72.4 44 9.8 49.7 0
22:17 1020 30.12 849 25.07 22.3 72.1 41 8.6 47.6 0
22:18 1020 30.12 849 25.07 22.4 72.2 42 8.9 48 0
22:19 1020 30.12 849 25.07 22.4 72.3 44 9.6 49.3 0
22:20 1020 30.12 849 25.07 22.2 72 43 9.2 48.6 0
22:21 1020 30.12 849 25.07 22.1 71.8 42 8.8 47.8 0
22:22 1020 30.12 849 25.07 22.2 72 42 9 48.1 0
22:23 1020 30.12 849 25.07 22.3 72.1 43 9.2 48.5 0
22:24 1020 30.12 849 25.07 22.2 71.9 45 9.7 49.5 0
22:25 1020 30.12 849 25.07 22 71.7 44 9.5 49.1 0
22:26 1020 30.12 849 25.07 22 71.5 43 9 48.3 0
22:27 1020 30.12 849 25.07 21.9 71.4 43 9 48.2 0
22:28 1020 30.12 849 25.07 21.9 71.4 45 9.5 49.1 0
22:29 1020 30.12 849 25.07 21.7 71.1 46 9.7 49.4 0
22:30 1020 30.12 849 25.07 21.6 70.9 46 9.5 49.1 0
22:31 1020 30.12 849 25.07 21.5 70.7 45 9.3 48.8 0
22:32 1020 30.12 849 25.07 21.6 70.8 45 9.2 48.5 0
22:33 1020 30.12 849 25.07 21.6 70.8 45 9.3 48.8 0
22:34 1020 30.12 849 25.07 21.6 70.9 45 9.4 48.9 0
22:35 1020 30.12 849 25.07 21.7 71 45 9.3 48.7 0
22:36 1020 30.12 849 25.07 21.7 71.1 45 9.4 48.9 0
22:37 1020 30.12 849 25.07 21.7 71.1 46 9.6 49.3 0
22:38 1020 30.12 849 25.07 21.8 71.2 43 8.9 48.1 0
22:39 1020 30.12 849 25.07 22 71.6 43 8.9 48.1 0
22:40 1020 30.12 849 25.07 22.2 71.9 42 8.8 47.8 0
22:41 1020 30.12 849 25.07 22.3 72.1 42 8.8 47.9 0
22:42 1020 30.12 849 25.07 22.4 72.3 40 8.2 46.8 0
22:43 1020 30.12 849 25.07 22.6 72.7 41 8.8 47.9 0
22:44 1020 30.12 849 25.07 22.7 72.9 40 8.7 47.6 0
22:45 1020 30.12 849 25.07 22.8 73 40 8.7 47.6 0
22:46 1020 30.12 849 25.07 22.8 73.1 42 9.3 48.8 0
22:47 1020 30.12 849 25.07 22.7 72.8 42 9.5 49 0
22:48 1020 30.12 849 25.07 22.4 72.4 44 9.7 49.4 0
22:49 1020 30.12 849 25.07 22.3 72.1 44 9.8 49.6 0
22:50 1020 30.12 849 25.07 22.1 71.8 46 10 50 0
22:51 1020 30.12 849 25.07 21.8 71.2 46 9.8 49.6 0
22:52 1020 30.12 849 25.07 21.7 71 45 9.4 48.9 0
22:53 1020 30.12 849 25.07 21.6 70.8 45 9.3 48.8 0
22:54 1020 30.12 849 25.07 21.6 70.8 45 9.3 48.7 0
22:55 1020 30.12 849 25.07 21.6 70.8 46 9.5 49 0
22:56 1020 30.12 849 25.07 21.5 70.8 46 9.6 49.4 0
22:57 1020 30.12 849 25.07 21.5 70.6 46 9.5 49.1 0
22:58 1020 30.12 849 25.07 21.4 70.6 46 9.6 49.3 0
22:59 1020 30.12 849 25.07 21.4 70.6 45 9.3 48.7 0
23:00 1020 30.12 849 25.07 21.4 70.5 45 9.2 48.6 0
23:01 1020 30.12 849 25.07 21.4 70.6 47 9.7 49.5 0
23:02 1020 30.12 849 25.07 21.3 70.3 48 10 50.1 0
23:03 1020 30.12 849 25.07 21.1 70 48 10 50 0
23:04 1020 30.12 849 25.07 20.9 69.7 49 10 49.9 0
23:05 1020 30.12 849 25.07 20.9 69.5 49 10 50 0
23:06 1020 30.12 849 25.07 20.8 69.4 48 9.6 49.3 0
23:07 1020 30.12 849 25.07 20.8 69.5 47 9.4 48.8 0
23:08 1020 30.12 849 25.07 20.9 69.5 48 9.7 49.4 0
23:09 1020 30.12 849 25.07 20.8 69.5 48 9.5 49.1 0
23:10 1020 30.12 849 25.07 20.7 69.3 47 9.1 48.4 0
23:11 1020 30.12 849 25.07 20.8 69.4 48 9.4 49 0
23:12 1020 30.12 849 25.07 20.8 69.5 48 9.5 49.2 0
23:13 1020 30.12 849 25.07 20.9 69.5 47 9.4 48.8 0
23:14 1020 30.12 849 25.07 20.8 69.5 48 9.5 49 0
23:15 1020 30.12 849 25.07 20.7 69.3 50 9.9 49.9 0
23:16 1020 30.12 849 25.07 20.6 69 50 10 49.9 0
23:17 1020 30.12 849 25.07 20.4 68.7 52 10.5 50.8 0
23:18 1020 30.12 849 25.07 20.2 68.3 53 10.4 50.7 0
23:19 1020 30.12 849 25.07 19.9 67.8 54 10.5 50.8 0
23:20 1020 30.12 849 25.07 19.6 67.3 54 10.3 50.5 0
23:21 1020 30.12 849 25.07 19.5 67.1 55 10.4 50.6 0
23:22 1020 30.12 849 25.07 19.4 67 54 10 50 0
23:23 1020 30.12 849 25.07 19.4 66.9 52 9.5 49.1 0
23:24 1020 30.12 850 25.1 19.7 67.5 51 9.5 49.1 0
23:25 1020 30.12 850 25.1 20 67.9 54 10.5 50.9 0
23:26 1021 30.15 850 25.1 19.8 67.7 53 10.2 50.3 0
23:27 1021 30.15 850 25.1 19.9 67.8 49 9 48.2 0
23:28 1021 30.15 850 25.1 20.2 68.4 48 9.1 48.3 0
23:29 1021 30.15 850 25.1 20.6 69 47 9 48.2 0
23:30 1021 30.15 850 25.1 20.8 69.4 47 9.2 48.6 0
23:31 1021 30.15 850 25.1 21 69.7 47 9.5 49.1 0
23:32 1021 30.15 850 25.1 21.2 70.1 45 9 48.1 0
23:33 1021 30.15 850 25.1 21.2 70.2 47 9.8 49.6 0
23:34 1021 30.15 850 25.1 20.9 69.6 51 10.4 50.8 0
23:35 1021 30.15 850 25.1 20.5 68.8 51 10.1 50.2 0
23:36 1021 30.15 850 25.1 20.3 68.6 52 10.2 50.3 0
23:37 1021 30.15 850 25.1 20.2 68.3 53 10.4 50.7 0
23:38 1021 30.15 850 25.1 20 68 53 10.1 50.2 0
23:39 1021 30.15 850 25.1 19.9 67.8 53 10.2 50.4 0
23:40 1021 30.15 850 25.1 19.9 67.7 52 9.9 49.8 0
23:41 1021 30.15 850 25.1 19.9 67.8 52 9.8 49.7 0
23:42 1021 30.15 850 25.1 19.9 67.8 52 9.8 49.7 0
23:43 1021 30.15 850 25.1 19.9 67.9 53 10.3 50.5 0
23:44 1021 30.15 850 25.1 19.9 67.8 54 10.4 50.7 0
23:45 1021 30.15 850 25.1 19.8 67.6 54 10.3 50.5 0
23:46 1021 30.15 850 25.1 19.7 67.5 55 10.6 51.1 0
23:47 1021 30.15 850 25.1 19.6 67.3 56 10.8 51.5 0
23:48 1021 30.15 850 25.1 19.4 66.9 58 10.9 51.7 0
23:49 1021 30.15 850 25.1 19.2 66.5 58 10.9 51.7 0
23:50 1021 30.15 850 25.1 19 66.1 60 11.2 52.1 0
23:51 1021 30.15 850 25.1 18.8 65.8 61 11.2 52.2 0
23:52 1021 30.15 850 25.1 18.5 65.3 64 11.6 52.8 0
23:53 1021 30.15 850 25.1 18.3 64.9 64 11.4 52.6 0
23:54 1021 30.15 850 25.1 18.2 64.7 64 11.3 52.3 0
23:55 1021 30.15 850 25.1 18.2 64.7 63 11.1 52 0
23:56 1021 30.15 850 25.1 18.3 64.9 62 11 51.8 0
23:57 1021 30.15 850 25.1 18.5 65.2 63 11.3 52.4 0
23:58 1021 30.15 850 25.1 18.5 65.4 60 10.8 51.5 0
23:59 1021 30.15 850 25.1 18.7 65.6 60 10.9 51.6 0
24:00 1021 30.15 850 25.1 18.8 65.8 60 11 51.9 0